<?xml version="1.0" encoding="UTF-8" standalone="no" ?>
<gpx xmlns="http://www.topografix.com/GPX/1/1" xmlns:xsi="http://www.w3.org/2001/XMLSchema-instance" xsi:schemaLocation="http://www.topografix.com/GPX/1/1 http://www.topografix.com/GPX/1/1/gpx.xsd" version="1.1" creator="VisuGPX - https://www.visugpx.com">
  <metadata>
    <name>Trajet Pombonne - Maurens </name>
    <desc><![CDATA[Lé départ se fera au nord de Bergerac, au parc de Pombonne, pour 10km jusqu\'au prochain ravitaillement à Maurens. ]]></desc>
  </metadata>
  <trk>
    <name><![CDATA[Track 2013-03-04  10:32am]]></name>
    <trkseg>
      <trkpt lat="44.87277" lon="0.49751">
        <ele>39.968384</ele>
        <time>2013-03-04T10:32:40Z</time>
      </trkpt>
      <trkpt lat="44.87273" lon="0.49747">
        <ele>39.989502</ele>
        <time>2013-03-04T10:32:45Z</time>
      </trkpt>
      <trkpt lat="44.87268" lon="0.4975">
        <ele>39.626709</ele>
        <time>2013-03-04T10:32:48Z</time>
      </trkpt>
      <trkpt lat="44.87265" lon="0.49756">
        <ele>39.450073</ele>
        <time>2013-03-04T10:32:50Z</time>
      </trkpt>
      <trkpt lat="44.87264" lon="0.49764">
        <ele>39.296631</ele>
        <time>2013-03-04T10:32:52Z</time>
      </trkpt>
      <trkpt lat="44.87268" lon="0.49769">
        <ele>39.376099</ele>
        <time>2013-03-04T10:32:55Z</time>
      </trkpt>
      <trkpt lat="44.87273" lon="0.49768">
        <ele>39.563049</ele>
        <time>2013-03-04T10:32:57Z</time>
      </trkpt>
      <trkpt lat="44.8728" lon="0.49766">
        <ele>39.799683</ele>
        <time>2013-03-04T10:33:00Z</time>
      </trkpt>
      <trkpt lat="44.87285" lon="0.49767">
        <ele>39.954773</ele>
        <time>2013-03-04T10:33:03Z</time>
      </trkpt>
      <trkpt lat="44.87287" lon="0.49772">
        <ele>39.967163</ele>
        <time>2013-03-04T10:33:05Z</time>
      </trkpt>
      <trkpt lat="44.87289" lon="0.4978">
        <ele>39.883057</ele>
        <time>2013-03-04T10:33:07Z</time>
      </trkpt>
      <trkpt lat="44.87292" lon="0.4979">
        <ele>39.798462</ele>
        <time>2013-03-04T10:33:09Z</time>
      </trkpt>
      <trkpt lat="44.87295" lon="0.49798">
        <ele>39.726257</ele>
        <time>2013-03-04T10:33:11Z</time>
      </trkpt>
      <trkpt lat="44.87295" lon="0.49807">
        <ele>39.576416</ele>
        <time>2013-03-04T10:33:13Z</time>
      </trkpt>
      <trkpt lat="44.87294" lon="0.49817">
        <ele>39.354248</ele>
        <time>2013-03-04T10:33:15Z</time>
      </trkpt>
      <trkpt lat="44.87294" lon="0.49828">
        <ele>39.164612</ele>
        <time>2013-03-04T10:33:17Z</time>
      </trkpt>
      <trkpt lat="44.87295" lon="0.49837">
        <ele>39.15271</ele>
        <time>2013-03-04T10:33:19Z</time>
      </trkpt>
      <trkpt lat="44.87298" lon="0.4985">
        <ele>39.423218</ele>
        <time>2013-03-04T10:33:21Z</time>
      </trkpt>
      <trkpt lat="44.87301" lon="0.4986">
        <ele>39.6745</ele>
        <time>2013-03-04T10:33:23Z</time>
      </trkpt>
      <trkpt lat="44.87305" lon="0.49869">
        <ele>39.897888</ele>
        <time>2013-03-04T10:33:25Z</time>
      </trkpt>
      <trkpt lat="44.8731" lon="0.49876">
        <ele>40.090637</ele>
        <time>2013-03-04T10:33:27Z</time>
      </trkpt>
      <trkpt lat="44.87313" lon="0.49883">
        <ele>40.253601</ele>
        <time>2013-03-04T10:33:29Z</time>
      </trkpt>
      <trkpt lat="44.87318" lon="0.49886">
        <ele>40.38739</ele>
        <time>2013-03-04T10:33:31Z</time>
      </trkpt>
      <trkpt lat="44.87326" lon="0.49889">
        <ele>40.546997</ele>
        <time>2013-03-04T10:33:33Z</time>
      </trkpt>
      <trkpt lat="44.87333" lon="0.49889">
        <ele>40.662598</ele>
        <time>2013-03-04T10:33:35Z</time>
      </trkpt>
      <trkpt lat="44.87338" lon="0.49888">
        <ele>41.091736</ele>
        <time>2013-03-04T10:33:37Z</time>
      </trkpt>
      <trkpt lat="44.87343" lon="0.49887">
        <ele>41.616943</ele>
        <time>2013-03-04T10:33:39Z</time>
      </trkpt>
      <trkpt lat="44.87349" lon="0.49885">
        <ele>42.180298</ele>
        <time>2013-03-04T10:33:41Z</time>
      </trkpt>
      <trkpt lat="44.87357" lon="0.49887">
        <ele>42.89801</ele>
        <time>2013-03-04T10:33:43Z</time>
      </trkpt>
      <trkpt lat="44.87361" lon="0.4989">
        <ele>43.32489</ele>
        <time>2013-03-04T10:33:44Z</time>
      </trkpt>
      <trkpt lat="44.87371" lon="0.49899">
        <ele>44.191162</ele>
        <time>2013-03-04T10:33:46Z</time>
      </trkpt>
      <trkpt lat="44.87387" lon="0.4992">
        <ele>45.402283</ele>
        <time>2013-03-04T10:33:48Z</time>
      </trkpt>
      <trkpt lat="44.87391" lon="0.49924">
        <ele>45.653687</ele>
        <time>2013-03-04T10:33:49Z</time>
      </trkpt>
      <trkpt lat="44.87394" lon="0.49933">
        <ele>45.667358</ele>
        <time>2013-03-04T10:33:50Z</time>
      </trkpt>
      <trkpt lat="44.87395" lon="0.49948">
        <ele>45.37323</ele>
        <time>2013-03-04T10:33:52Z</time>
      </trkpt>
      <trkpt lat="44.87397" lon="0.49954">
        <ele>45.317017</ele>
        <time>2013-03-04T10:33:53Z</time>
      </trkpt>
      <trkpt lat="44.87402" lon="0.49979">
        <ele>44.894897</ele>
        <time>2013-03-04T10:33:55Z</time>
      </trkpt>
      <trkpt lat="44.87405" lon="0.49994">
        <ele>44.637512</ele>
        <time>2013-03-04T10:33:57Z</time>
      </trkpt>
      <trkpt lat="44.87396" lon="0.5">
        <ele>44.035583</ele>
        <time>2013-03-04T10:33:58Z</time>
      </trkpt>
      <trkpt lat="44.87396" lon="0.50011">
        <ele>43.511475</ele>
        <time>2013-03-04T10:34:00Z</time>
      </trkpt>
      <trkpt lat="44.87401" lon="0.5004">
        <ele>42.427551</ele>
        <time>2013-03-04T10:34:02Z</time>
      </trkpt>
      <trkpt lat="44.87404" lon="0.50046">
        <ele>42.282837</ele>
        <time>2013-03-04T10:34:03Z</time>
      </trkpt>
      <trkpt lat="44.87408" lon="0.50054">
        <ele>42.053589</ele>
        <time>2013-03-04T10:34:05Z</time>
      </trkpt>
      <trkpt lat="44.87417" lon="0.50065">
        <ele>41.856262</ele>
        <time>2013-03-04T10:34:07Z</time>
      </trkpt>
      <trkpt lat="44.87421" lon="0.50071">
        <ele>42.092407</ele>
        <time>2013-03-04T10:34:09Z</time>
      </trkpt>
      <trkpt lat="44.87427" lon="0.50078">
        <ele>42.331665</ele>
        <time>2013-03-04T10:34:11Z</time>
      </trkpt>
      <trkpt lat="44.87431" lon="0.50087">
        <ele>42.514832</ele>
        <time>2013-03-04T10:34:12Z</time>
      </trkpt>
      <trkpt lat="44.87437" lon="0.50098">
        <ele>42.891235</ele>
        <time>2013-03-04T10:34:14Z</time>
      </trkpt>
      <trkpt lat="44.87441" lon="0.50109">
        <ele>43.105469</ele>
        <time>2013-03-04T10:34:16Z</time>
      </trkpt>
      <trkpt lat="44.87441" lon="0.50123">
        <ele>42.884949</ele>
        <time>2013-03-04T10:34:18Z</time>
      </trkpt>
      <trkpt lat="44.87441" lon="0.50135">
        <ele>42.608459</ele>
        <time>2013-03-04T10:34:20Z</time>
      </trkpt>
      <trkpt lat="44.8744" lon="0.50147">
        <ele>42.327942</ele>
        <time>2013-03-04T10:34:22Z</time>
      </trkpt>
      <trkpt lat="44.87449" lon="0.50169">
        <ele>42.706665</ele>
        <time>2013-03-04T10:34:25Z</time>
      </trkpt>
      <trkpt lat="44.87457" lon="0.50176">
        <ele>43.311096</ele>
        <time>2013-03-04T10:34:28Z</time>
      </trkpt>
      <trkpt lat="44.87464" lon="0.5018">
        <ele>43.811768</ele>
        <time>2013-03-04T10:34:30Z</time>
      </trkpt>
      <trkpt lat="44.87473" lon="0.50185">
        <ele>44.419678</ele>
        <time>2013-03-04T10:34:32Z</time>
      </trkpt>
      <trkpt lat="44.87481" lon="0.50189">
        <ele>44.979431</ele>
        <time>2013-03-04T10:34:34Z</time>
      </trkpt>
      <trkpt lat="44.87488" lon="0.50192">
        <ele>45.430237</ele>
        <time>2013-03-04T10:34:36Z</time>
      </trkpt>
      <trkpt lat="44.87492" lon="0.50195">
        <ele>45.742126</ele>
        <time>2013-03-04T10:34:37Z</time>
      </trkpt>
      <trkpt lat="44.87512" lon="0.50208">
        <ele>46.893555</ele>
        <time>2013-03-04T10:34:39Z</time>
      </trkpt>
      <trkpt lat="44.87516" lon="0.50222">
        <ele>46.740662</ele>
        <time>2013-03-04T10:34:41Z</time>
      </trkpt>
      <trkpt lat="44.87518" lon="0.50233">
        <ele>46.571777</ele>
        <time>2013-03-04T10:34:43Z</time>
      </trkpt>
      <trkpt lat="44.8752" lon="0.50245">
        <ele>46.386963</ele>
        <time>2013-03-04T10:34:45Z</time>
      </trkpt>
      <trkpt lat="44.87523" lon="0.50255">
        <ele>46.11853</ele>
        <time>2013-03-04T10:34:47Z</time>
      </trkpt>
      <trkpt lat="44.87525" lon="0.50265">
        <ele>45.747803</ele>
        <time>2013-03-04T10:34:49Z</time>
      </trkpt>
      <trkpt lat="44.87527" lon="0.50275">
        <ele>45.421143</ele>
        <time>2013-03-04T10:34:51Z</time>
      </trkpt>
      <trkpt lat="44.87528" lon="0.50282">
        <ele>45.179443</ele>
        <time>2013-03-04T10:34:52Z</time>
      </trkpt>
      <trkpt lat="44.8753" lon="0.50288">
        <ele>44.939209</ele>
        <time>2013-03-04T10:34:53Z</time>
      </trkpt>
      <trkpt lat="44.87533" lon="0.50302">
        <ele>44.442383</ele>
        <time>2013-03-04T10:34:55Z</time>
      </trkpt>
      <trkpt lat="44.87536" lon="0.50321">
        <ele>43.78894</ele>
        <time>2013-03-04T10:34:57Z</time>
      </trkpt>
      <trkpt lat="44.87539" lon="0.50333">
        <ele>43.337891</ele>
        <time>2013-03-04T10:34:59Z</time>
      </trkpt>
      <trkpt lat="44.87542" lon="0.50346">
        <ele>43.339966</ele>
        <time>2013-03-04T10:35:01Z</time>
      </trkpt>
      <trkpt lat="44.87543" lon="0.50353">
        <ele>43.341187</ele>
        <time>2013-03-04T10:35:02Z</time>
      </trkpt>
      <trkpt lat="44.87544" lon="0.5036">
        <ele>43.342163</ele>
        <time>2013-03-04T10:35:03Z</time>
      </trkpt>
      <trkpt lat="44.87546" lon="0.50367">
        <ele>43.343384</ele>
        <time>2013-03-04T10:35:04Z</time>
      </trkpt>
      <trkpt lat="44.87548" lon="0.50379">
        <ele>43.34552</ele>
        <time>2013-03-04T10:35:06Z</time>
      </trkpt>
      <trkpt lat="44.8755" lon="0.5039">
        <ele>43.346924</ele>
        <time>2013-03-04T10:35:08Z</time>
      </trkpt>
      <trkpt lat="44.87553" lon="0.50401">
        <ele>43.348511</ele>
        <time>2013-03-04T10:35:10Z</time>
      </trkpt>
      <trkpt lat="44.87554" lon="0.50407">
        <ele>43.349915</ele>
        <time>2013-03-04T10:35:11Z</time>
      </trkpt>
      <trkpt lat="44.87557" lon="0.50421">
        <ele>43.387939</ele>
        <time>2013-03-04T10:35:13Z</time>
      </trkpt>
      <trkpt lat="44.87559" lon="0.50432">
        <ele>43.461182</ele>
        <time>2013-03-04T10:35:16Z</time>
      </trkpt>
      <trkpt lat="44.87562" lon="0.50448">
        <ele>43.545593</ele>
        <time>2013-03-04T10:35:18Z</time>
      </trkpt>
      <trkpt lat="44.87564" lon="0.50456">
        <ele>43.57373</ele>
        <time>2013-03-04T10:35:19Z</time>
      </trkpt>
      <trkpt lat="44.87566" lon="0.50467">
        <ele>43.605835</ele>
        <time>2013-03-04T10:35:21Z</time>
      </trkpt>
      <trkpt lat="44.87568" lon="0.50476">
        <ele>43.618774</ele>
        <time>2013-03-04T10:35:23Z</time>
      </trkpt>
      <trkpt lat="44.87569" lon="0.50484">
        <ele>43.623291</ele>
        <time>2013-03-04T10:35:25Z</time>
      </trkpt>
      <trkpt lat="44.87557" lon="0.50482">
        <ele>43.111877</ele>
        <time>2013-03-04T10:35:28Z</time>
      </trkpt>
      <trkpt lat="44.8756" lon="0.50477">
        <ele>43.278931</ele>
        <time>2013-03-04T10:35:30Z</time>
      </trkpt>
      <trkpt lat="44.87565" lon="0.50472">
        <ele>43.51062</ele>
        <time>2013-03-04T10:35:33Z</time>
      </trkpt>
      <trkpt lat="44.87568" lon="0.50478">
        <ele>43.620239</ele>
        <time>2013-03-04T10:35:35Z</time>
      </trkpt>
      <trkpt lat="44.87571" lon="0.50489">
        <ele>43.627747</ele>
        <time>2013-03-04T10:35:37Z</time>
      </trkpt>
      <trkpt lat="44.87572" lon="0.50502">
        <ele>43.602722</ele>
        <time>2013-03-04T10:35:39Z</time>
      </trkpt>
      <trkpt lat="44.87575" lon="0.50515">
        <ele>43.723022</ele>
        <time>2013-03-04T10:35:41Z</time>
      </trkpt>
      <trkpt lat="44.8758" lon="0.50533">
        <ele>43.914917</ele>
        <time>2013-03-04T10:35:43Z</time>
      </trkpt>
      <trkpt lat="44.87584" lon="0.50544">
        <ele>44.003967</ele>
        <time>2013-03-04T10:35:45Z</time>
      </trkpt>
      <trkpt lat="44.87584" lon="0.50551">
        <ele>44.015564</ele>
        <time>2013-03-04T10:35:46Z</time>
      </trkpt>
      <trkpt lat="44.87587" lon="0.50563">
        <ele>44.077209</ele>
        <time>2013-03-04T10:35:48Z</time>
      </trkpt>
      <trkpt lat="44.87588" lon="0.50569">
        <ele>44.105957</ele>
        <time>2013-03-04T10:35:49Z</time>
      </trkpt>
      <trkpt lat="44.8759" lon="0.50581">
        <ele>44.155396</ele>
        <time>2013-03-04T10:35:51Z</time>
      </trkpt>
      <trkpt lat="44.87594" lon="0.50598">
        <ele>44.274231</ele>
        <time>2013-03-04T10:35:53Z</time>
      </trkpt>
      <trkpt lat="44.87597" lon="0.50604">
        <ele>44.367004</ele>
        <time>2013-03-04T10:35:54Z</time>
      </trkpt>
      <trkpt lat="44.87598" lon="0.5061">
        <ele>44.41864</ele>
        <time>2013-03-04T10:35:55Z</time>
      </trkpt>
      <trkpt lat="44.876" lon="0.50627">
        <ele>44.506714</ele>
        <time>2013-03-04T10:35:57Z</time>
      </trkpt>
      <trkpt lat="44.87601" lon="0.50634">
        <ele>44.5672</ele>
        <time>2013-03-04T10:35:58Z</time>
      </trkpt>
      <trkpt lat="44.87602" lon="0.50648">
        <ele>44.627869</ele>
        <time>2013-03-04T10:36:00Z</time>
      </trkpt>
      <trkpt lat="44.87607" lon="0.50658">
        <ele>44.832642</ele>
        <time>2013-03-04T10:36:02Z</time>
      </trkpt>
      <trkpt lat="44.87606" lon="0.50666">
        <ele>44.827148</ele>
        <time>2013-03-04T10:36:03Z</time>
      </trkpt>
      <trkpt lat="44.87609" lon="0.50679">
        <ele>44.932373</ele>
        <time>2013-03-04T10:36:05Z</time>
      </trkpt>
      <trkpt lat="44.87611" lon="0.50687">
        <ele>44.997925</ele>
        <time>2013-03-04T10:36:06Z</time>
      </trkpt>
      <trkpt lat="44.87615" lon="0.50708">
        <ele>45.151733</ele>
        <time>2013-03-04T10:36:08Z</time>
      </trkpt>
      <trkpt lat="44.87618" lon="0.50722">
        <ele>45.250183</ele>
        <time>2013-03-04T10:36:10Z</time>
      </trkpt>
      <trkpt lat="44.8762" lon="0.5073">
        <ele>45.310303</ele>
        <time>2013-03-04T10:36:11Z</time>
      </trkpt>
      <trkpt lat="44.87622" lon="0.50744">
        <ele>45.407715</ele>
        <time>2013-03-04T10:36:13Z</time>
      </trkpt>
      <trkpt lat="44.87624" lon="0.50751">
        <ele>45.44812</ele>
        <time>2013-03-04T10:36:14Z</time>
      </trkpt>
      <trkpt lat="44.87625" lon="0.50759">
        <ele>45.457092</ele>
        <time>2013-03-04T10:36:15Z</time>
      </trkpt>
      <trkpt lat="44.87627" lon="0.50767">
        <ele>45.463806</ele>
        <time>2013-03-04T10:36:16Z</time>
      </trkpt>
      <trkpt lat="44.87631" lon="0.50791">
        <ele>45.450928</ele>
        <time>2013-03-04T10:36:20Z</time>
      </trkpt>
      <trkpt lat="44.87634" lon="0.50806">
        <ele>45.426331</ele>
        <time>2013-03-04T10:36:22Z</time>
      </trkpt>
      <trkpt lat="44.87637" lon="0.5082">
        <ele>45.393311</ele>
        <time>2013-03-04T10:36:25Z</time>
      </trkpt>
      <trkpt lat="44.87648" lon="0.50817">
        <ele>45.71106</ele>
        <time>2013-03-04T10:36:27Z</time>
      </trkpt>
      <trkpt lat="44.87656" lon="0.50816">
        <ele>45.919739</ele>
        <time>2013-03-04T10:36:29Z</time>
      </trkpt>
      <trkpt lat="44.87661" lon="0.50812">
        <ele>46.111206</ele>
        <time>2013-03-04T10:36:31Z</time>
      </trkpt>
      <trkpt lat="44.87669" lon="0.50812">
        <ele>46.495178</ele>
        <time>2013-03-04T10:36:33Z</time>
      </trkpt>
      <trkpt lat="44.87676" lon="0.5081">
        <ele>47.322571</ele>
        <time>2013-03-04T10:36:35Z</time>
      </trkpt>
      <trkpt lat="44.8769" lon="0.5081">
        <ele>48.96051</ele>
        <time>2013-03-04T10:36:39Z</time>
      </trkpt>
      <trkpt lat="44.87705" lon="0.50809">
        <ele>50.565674</ele>
        <time>2013-03-04T10:36:43Z</time>
      </trkpt>
      <trkpt lat="44.8772" lon="0.50806">
        <ele>52.28125</ele>
        <time>2013-03-04T10:36:48Z</time>
      </trkpt>
      <trkpt lat="44.87725" lon="0.50805">
        <ele>52.825439</ele>
        <time>2013-03-04T10:36:50Z</time>
      </trkpt>
      <trkpt lat="44.87741" lon="0.50801">
        <ele>54.608215</ele>
        <time>2013-03-04T10:36:56Z</time>
      </trkpt>
      <trkpt lat="44.87746" lon="0.508">
        <ele>55.173462</ele>
        <time>2013-03-04T10:36:59Z</time>
      </trkpt>
      <trkpt lat="44.87751" lon="0.50799">
        <ele>55.709473</ele>
        <time>2013-03-04T10:37:02Z</time>
      </trkpt>
      <trkpt lat="44.87758" lon="0.50798">
        <ele>56.319763</ele>
        <time>2013-03-04T10:37:05Z</time>
      </trkpt>
      <trkpt lat="44.87764" lon="0.50797">
        <ele>56.892151</ele>
        <time>2013-03-04T10:37:08Z</time>
      </trkpt>
      <trkpt lat="44.87768" lon="0.50797">
        <ele>57.317078</ele>
        <time>2013-03-04T10:37:10Z</time>
      </trkpt>
      <trkpt lat="44.87773" lon="0.50796">
        <ele>57.788147</ele>
        <time>2013-03-04T10:37:12Z</time>
      </trkpt>
      <trkpt lat="44.87778" lon="0.50795">
        <ele>58.274963</ele>
        <time>2013-03-04T10:37:14Z</time>
      </trkpt>
      <trkpt lat="44.87785" lon="0.50794">
        <ele>58.935059</ele>
        <time>2013-03-04T10:37:17Z</time>
      </trkpt>
      <trkpt lat="44.87791" lon="0.50793">
        <ele>59.444458</ele>
        <time>2013-03-04T10:37:19Z</time>
      </trkpt>
      <trkpt lat="44.87796" lon="0.50792">
        <ele>59.936157</ele>
        <time>2013-03-04T10:37:21Z</time>
      </trkpt>
      <trkpt lat="44.87801" lon="0.50792">
        <ele>60.388</ele>
        <time>2013-03-04T10:37:23Z</time>
      </trkpt>
      <trkpt lat="44.87806" lon="0.50791">
        <ele>60.88092</ele>
        <time>2013-03-04T10:37:25Z</time>
      </trkpt>
      <trkpt lat="44.87811" lon="0.5079">
        <ele>61.359802</ele>
        <time>2013-03-04T10:37:28Z</time>
      </trkpt>
      <trkpt lat="44.87821" lon="0.50804">
        <ele>62.740234</ele>
        <time>2013-03-04T10:37:34Z</time>
      </trkpt>
      <trkpt lat="44.87827" lon="0.50813">
        <ele>63.571533</ele>
        <time>2013-03-04T10:37:36Z</time>
      </trkpt>
      <trkpt lat="44.87832" lon="0.50818">
        <ele>64.295349</ele>
        <time>2013-03-04T10:37:38Z</time>
      </trkpt>
      <trkpt lat="44.87837" lon="0.50823">
        <ele>64.8797</ele>
        <time>2013-03-04T10:37:40Z</time>
      </trkpt>
      <trkpt lat="44.8784" lon="0.50825">
        <ele>65.151001</ele>
        <time>2013-03-04T10:37:45Z</time>
      </trkpt>
      <trkpt lat="44.87855" lon="0.50829">
        <ele>66.200989</ele>
        <time>2013-03-04T10:37:47Z</time>
      </trkpt>
      <trkpt lat="44.87861" lon="0.50831">
        <ele>66.560791</ele>
        <time>2013-03-04T10:37:49Z</time>
      </trkpt>
      <trkpt lat="44.87867" lon="0.50832">
        <ele>67.007141</ele>
        <time>2013-03-04T10:37:52Z</time>
      </trkpt>
      <trkpt lat="44.87873" lon="0.50833">
        <ele>67.346375</ele>
        <time>2013-03-04T10:37:54Z</time>
      </trkpt>
      <trkpt lat="44.8789" lon="0.50839">
        <ele>68.296082</ele>
        <time>2013-03-04T10:37:59Z</time>
      </trkpt>
      <trkpt lat="44.87897" lon="0.50841">
        <ele>68.732544</ele>
        <time>2013-03-04T10:38:01Z</time>
      </trkpt>
      <trkpt lat="44.87913" lon="0.50846">
        <ele>69.774475</ele>
        <time>2013-03-04T10:38:06Z</time>
      </trkpt>
      <trkpt lat="44.87919" lon="0.50847">
        <ele>70.149109</ele>
        <time>2013-03-04T10:38:08Z</time>
      </trkpt>
      <trkpt lat="44.87925" lon="0.50849">
        <ele>70.468689</ele>
        <time>2013-03-04T10:38:10Z</time>
      </trkpt>
      <trkpt lat="44.87944" lon="0.50855">
        <ele>71.464417</ele>
        <time>2013-03-04T10:38:16Z</time>
      </trkpt>
      <trkpt lat="44.87949" lon="0.50857">
        <ele>71.719604</ele>
        <time>2013-03-04T10:38:18Z</time>
      </trkpt>
      <trkpt lat="44.87964" lon="0.50862">
        <ele>72.468567</ele>
        <time>2013-03-04T10:38:22Z</time>
      </trkpt>
      <trkpt lat="44.87971" lon="0.50864">
        <ele>72.759949</ele>
        <time>2013-03-04T10:38:24Z</time>
      </trkpt>
      <trkpt lat="44.87977" lon="0.50867">
        <ele>73.056702</ele>
        <time>2013-03-04T10:38:26Z</time>
      </trkpt>
      <trkpt lat="44.87984" lon="0.50869">
        <ele>73.365662</ele>
        <time>2013-03-04T10:38:28Z</time>
      </trkpt>
      <trkpt lat="44.87989" lon="0.50871">
        <ele>73.56488</ele>
        <time>2013-03-04T10:38:29Z</time>
      </trkpt>
      <trkpt lat="44.87997" lon="0.50873">
        <ele>73.878906</ele>
        <time>2013-03-04T10:38:31Z</time>
      </trkpt>
      <trkpt lat="44.88016" lon="0.50881">
        <ele>74.776794</ele>
        <time>2013-03-04T10:38:36Z</time>
      </trkpt>
      <trkpt lat="44.88022" lon="0.50883">
        <ele>75.053345</ele>
        <time>2013-03-04T10:38:37Z</time>
      </trkpt>
      <trkpt lat="44.88029" lon="0.50887">
        <ele>75.458557</ele>
        <time>2013-03-04T10:38:39Z</time>
      </trkpt>
      <trkpt lat="44.88037" lon="0.5089">
        <ele>75.902405</ele>
        <time>2013-03-04T10:38:41Z</time>
      </trkpt>
      <trkpt lat="44.88045" lon="0.50894">
        <ele>76.338989</ele>
        <time>2013-03-04T10:38:43Z</time>
      </trkpt>
      <trkpt lat="44.88052" lon="0.50898">
        <ele>76.796875</ele>
        <time>2013-03-04T10:38:45Z</time>
      </trkpt>
      <trkpt lat="44.8806" lon="0.50901">
        <ele>77.26123</ele>
        <time>2013-03-04T10:38:47Z</time>
      </trkpt>
      <trkpt lat="44.88068" lon="0.50906">
        <ele>77.815369</ele>
        <time>2013-03-04T10:38:49Z</time>
      </trkpt>
      <trkpt lat="44.88075" lon="0.50911">
        <ele>78.372803</ele>
        <time>2013-03-04T10:38:51Z</time>
      </trkpt>
      <trkpt lat="44.88084" lon="0.50915">
        <ele>78.988586</ele>
        <time>2013-03-04T10:38:53Z</time>
      </trkpt>
      <trkpt lat="44.88088" lon="0.50918">
        <ele>79.129944</ele>
        <time>2013-03-04T10:38:54Z</time>
      </trkpt>
      <trkpt lat="44.88095" lon="0.50922">
        <ele>79.364502</ele>
        <time>2013-03-04T10:38:56Z</time>
      </trkpt>
      <trkpt lat="44.88101" lon="0.50927">
        <ele>79.566162</ele>
        <time>2013-03-04T10:38:58Z</time>
      </trkpt>
      <trkpt lat="44.88108" lon="0.50931">
        <ele>79.737976</ele>
        <time>2013-03-04T10:39:00Z</time>
      </trkpt>
      <trkpt lat="44.88114" lon="0.50936">
        <ele>79.857056</ele>
        <time>2013-03-04T10:39:02Z</time>
      </trkpt>
      <trkpt lat="44.88119" lon="0.5094">
        <ele>79.935852</ele>
        <time>2013-03-04T10:39:05Z</time>
      </trkpt>
      <trkpt lat="44.88125" lon="0.50944">
        <ele>79.996948</ele>
        <time>2013-03-04T10:39:07Z</time>
      </trkpt>
      <trkpt lat="44.88131" lon="0.50949">
        <ele>80.030457</ele>
        <time>2013-03-04T10:39:09Z</time>
      </trkpt>
      <trkpt lat="44.88137" lon="0.50954">
        <ele>80.030396</ele>
        <time>2013-03-04T10:39:11Z</time>
      </trkpt>
      <trkpt lat="44.88142" lon="0.50958">
        <ele>80.003418</ele>
        <time>2013-03-04T10:39:13Z</time>
      </trkpt>
      <trkpt lat="44.8815" lon="0.50963">
        <ele>79.940002</ele>
        <time>2013-03-04T10:39:15Z</time>
      </trkpt>
      <trkpt lat="44.88163" lon="0.5097">
        <ele>79.740051</ele>
        <time>2013-03-04T10:39:17Z</time>
      </trkpt>
      <trkpt lat="44.88178" lon="0.50979">
        <ele>79.516479</ele>
        <time>2013-03-04T10:39:19Z</time>
      </trkpt>
      <trkpt lat="44.88184" lon="0.50982">
        <ele>79.436768</ele>
        <time>2013-03-04T10:39:20Z</time>
      </trkpt>
      <trkpt lat="44.88195" lon="0.50988">
        <ele>79.280823</ele>
        <time>2013-03-04T10:39:22Z</time>
      </trkpt>
      <trkpt lat="44.88203" lon="0.50992">
        <ele>79.183777</ele>
        <time>2013-03-04T10:39:23Z</time>
      </trkpt>
      <trkpt lat="44.88208" lon="0.50995">
        <ele>79.112854</ele>
        <time>2013-03-04T10:39:24Z</time>
      </trkpt>
      <trkpt lat="44.88213" lon="0.50998">
        <ele>79.041382</ele>
        <time>2013-03-04T10:39:25Z</time>
      </trkpt>
      <trkpt lat="44.88227" lon="0.51008">
        <ele>78.990723</ele>
        <time>2013-03-04T10:39:27Z</time>
      </trkpt>
      <trkpt lat="44.88232" lon="0.51013">
        <ele>79.023865</ele>
        <time>2013-03-04T10:39:29Z</time>
      </trkpt>
      <trkpt lat="44.88237" lon="0.5102">
        <ele>79.091248</ele>
        <time>2013-03-04T10:39:30Z</time>
      </trkpt>
      <trkpt lat="44.8825" lon="0.51036">
        <ele>79.419739</ele>
        <time>2013-03-04T10:39:33Z</time>
      </trkpt>
      <trkpt lat="44.88257" lon="0.51045">
        <ele>79.79187</ele>
        <time>2013-03-04T10:39:35Z</time>
      </trkpt>
      <trkpt lat="44.88268" lon="0.5106">
        <ele>80.468811</ele>
        <time>2013-03-04T10:39:38Z</time>
      </trkpt>
      <trkpt lat="44.88273" lon="0.51067">
        <ele>80.792175</ele>
        <time>2013-03-04T10:39:40Z</time>
      </trkpt>
      <trkpt lat="44.88277" lon="0.51073">
        <ele>81.10553</ele>
        <time>2013-03-04T10:39:42Z</time>
      </trkpt>
      <trkpt lat="44.88282" lon="0.5108">
        <ele>81.455444</ele>
        <time>2013-03-04T10:39:44Z</time>
      </trkpt>
      <trkpt lat="44.88287" lon="0.51086">
        <ele>81.863525</ele>
        <time>2013-03-04T10:39:46Z</time>
      </trkpt>
      <trkpt lat="44.88292" lon="0.51091">
        <ele>82.223999</ele>
        <time>2013-03-04T10:39:48Z</time>
      </trkpt>
      <trkpt lat="44.88299" lon="0.51098">
        <ele>82.714172</ele>
        <time>2013-03-04T10:39:51Z</time>
      </trkpt>
      <trkpt lat="44.88305" lon="0.51102">
        <ele>83.098267</ele>
        <time>2013-03-04T10:39:53Z</time>
      </trkpt>
      <trkpt lat="44.88312" lon="0.51107">
        <ele>83.519287</ele>
        <time>2013-03-04T10:39:55Z</time>
      </trkpt>
      <trkpt lat="44.88327" lon="0.51111">
        <ele>84.389771</ele>
        <time>2013-03-04T10:40:00Z</time>
      </trkpt>
      <trkpt lat="44.88332" lon="0.51112">
        <ele>84.644348</ele>
        <time>2013-03-04T10:40:02Z</time>
      </trkpt>
      <trkpt lat="44.88338" lon="0.51113">
        <ele>84.975281</ele>
        <time>2013-03-04T10:40:04Z</time>
      </trkpt>
      <trkpt lat="44.88345" lon="0.51114">
        <ele>85.341797</ele>
        <time>2013-03-04T10:40:06Z</time>
      </trkpt>
      <trkpt lat="44.88359" lon="0.51114">
        <ele>86.048401</ele>
        <time>2013-03-04T10:40:10Z</time>
      </trkpt>
      <trkpt lat="44.88375" lon="0.51113">
        <ele>86.865173</ele>
        <time>2013-03-04T10:40:14Z</time>
      </trkpt>
      <trkpt lat="44.88389" lon="0.51109">
        <ele>87.555664</ele>
        <time>2013-03-04T10:40:18Z</time>
      </trkpt>
      <trkpt lat="44.88404" lon="0.51102">
        <ele>88.294556</ele>
        <time>2013-03-04T10:40:23Z</time>
      </trkpt>
      <trkpt lat="44.8841" lon="0.51099">
        <ele>88.630859</ele>
        <time>2013-03-04T10:40:25Z</time>
      </trkpt>
      <trkpt lat="44.88417" lon="0.51096">
        <ele>88.991394</ele>
        <time>2013-03-04T10:40:27Z</time>
      </trkpt>
      <trkpt lat="44.88423" lon="0.51093">
        <ele>89.596497</ele>
        <time>2013-03-04T10:40:29Z</time>
      </trkpt>
      <trkpt lat="44.8843" lon="0.5109">
        <ele>90.228638</ele>
        <time>2013-03-04T10:40:31Z</time>
      </trkpt>
      <trkpt lat="44.88436" lon="0.51087">
        <ele>90.858826</ele>
        <time>2013-03-04T10:40:33Z</time>
      </trkpt>
      <trkpt lat="44.88454" lon="0.51079">
        <ele>92.363831</ele>
        <time>2013-03-04T10:40:39Z</time>
      </trkpt>
      <trkpt lat="44.8846" lon="0.51076">
        <ele>92.780457</ele>
        <time>2013-03-04T10:40:41Z</time>
      </trkpt>
      <trkpt lat="44.88466" lon="0.51074">
        <ele>93.147278</ele>
        <time>2013-03-04T10:40:43Z</time>
      </trkpt>
      <trkpt lat="44.8848" lon="0.51067">
        <ele>93.970215</ele>
        <time>2013-03-04T10:40:48Z</time>
      </trkpt>
      <trkpt lat="44.88484" lon="0.51064">
        <ele>94.245605</ele>
        <time>2013-03-04T10:40:50Z</time>
      </trkpt>
      <trkpt lat="44.88489" lon="0.51062">
        <ele>94.543762</ele>
        <time>2013-03-04T10:40:52Z</time>
      </trkpt>
      <trkpt lat="44.88494" lon="0.5106">
        <ele>94.84021</ele>
        <time>2013-03-04T10:40:54Z</time>
      </trkpt>
      <trkpt lat="44.885" lon="0.51058">
        <ele>95.192688</ele>
        <time>2013-03-04T10:40:57Z</time>
      </trkpt>
      <trkpt lat="44.88505" lon="0.51057">
        <ele>95.38501</ele>
        <time>2013-03-04T10:40:59Z</time>
      </trkpt>
      <trkpt lat="44.8851" lon="0.51055">
        <ele>95.604736</ele>
        <time>2013-03-04T10:41:01Z</time>
      </trkpt>
      <trkpt lat="44.88515" lon="0.51054">
        <ele>95.831055</ele>
        <time>2013-03-04T10:41:03Z</time>
      </trkpt>
      <trkpt lat="44.8852" lon="0.51053">
        <ele>96.133789</ele>
        <time>2013-03-04T10:41:06Z</time>
      </trkpt>
      <trkpt lat="44.88526" lon="0.51053">
        <ele>96.54071</ele>
        <time>2013-03-04T10:41:09Z</time>
      </trkpt>
      <trkpt lat="44.88533" lon="0.51054">
        <ele>97.000854</ele>
        <time>2013-03-04T10:41:11Z</time>
      </trkpt>
      <trkpt lat="44.8854" lon="0.51054">
        <ele>97.464783</ele>
        <time>2013-03-04T10:41:13Z</time>
      </trkpt>
      <trkpt lat="44.88546" lon="0.51047">
        <ele>97.36731</ele>
        <time>2013-03-04T10:41:15Z</time>
      </trkpt>
      <trkpt lat="44.88553" lon="0.51048">
        <ele>97.911255</ele>
        <time>2013-03-04T10:41:17Z</time>
      </trkpt>
      <trkpt lat="44.88552" lon="0.51056">
        <ele>98.352478</ele>
        <time>2013-03-04T10:41:19Z</time>
      </trkpt>
      <trkpt lat="44.88567" lon="0.51059">
        <ele>99.505127</ele>
        <time>2013-03-04T10:41:21Z</time>
      </trkpt>
      <trkpt lat="44.88573" lon="0.5106">
        <ele>99.898621</ele>
        <time>2013-03-04T10:41:23Z</time>
      </trkpt>
      <trkpt lat="44.88578" lon="0.51061">
        <ele>100.323242</ele>
        <time>2013-03-04T10:41:25Z</time>
      </trkpt>
      <trkpt lat="44.88584" lon="0.51062">
        <ele>100.740417</ele>
        <time>2013-03-04T10:41:27Z</time>
      </trkpt>
      <trkpt lat="44.88591" lon="0.51064">
        <ele>100.932678</ele>
        <time>2013-03-04T10:41:29Z</time>
      </trkpt>
      <trkpt lat="44.88599" lon="0.51065">
        <ele>101.132996</ele>
        <time>2013-03-04T10:41:31Z</time>
      </trkpt>
      <trkpt lat="44.88605" lon="0.51066">
        <ele>101.278748</ele>
        <time>2013-03-04T10:41:33Z</time>
      </trkpt>
      <trkpt lat="44.88611" lon="0.51067">
        <ele>101.404907</ele>
        <time>2013-03-04T10:41:35Z</time>
      </trkpt>
      <trkpt lat="44.88616" lon="0.51068">
        <ele>101.533447</ele>
        <time>2013-03-04T10:41:37Z</time>
      </trkpt>
      <trkpt lat="44.88624" lon="0.51069">
        <ele>101.707458</ele>
        <time>2013-03-04T10:41:39Z</time>
      </trkpt>
      <trkpt lat="44.88632" lon="0.5107">
        <ele>101.898682</ele>
        <time>2013-03-04T10:41:41Z</time>
      </trkpt>
      <trkpt lat="44.8864" lon="0.51072">
        <ele>102.083191</ele>
        <time>2013-03-04T10:41:43Z</time>
      </trkpt>
      <trkpt lat="44.8865" lon="0.51073">
        <ele>102.283569</ele>
        <time>2013-03-04T10:41:45Z</time>
      </trkpt>
      <trkpt lat="44.88655" lon="0.51072">
        <ele>102.310486</ele>
        <time>2013-03-04T10:41:46Z</time>
      </trkpt>
      <trkpt lat="44.88663" lon="0.5107">
        <ele>102.312805</ele>
        <time>2013-03-04T10:41:48Z</time>
      </trkpt>
      <trkpt lat="44.88672" lon="0.51068">
        <ele>102.386475</ele>
        <time>2013-03-04T10:41:50Z</time>
      </trkpt>
      <trkpt lat="44.8868" lon="0.51065">
        <ele>102.506958</ele>
        <time>2013-03-04T10:41:52Z</time>
      </trkpt>
      <trkpt lat="44.88688" lon="0.51063">
        <ele>102.642273</ele>
        <time>2013-03-04T10:41:54Z</time>
      </trkpt>
      <trkpt lat="44.88695" lon="0.51061">
        <ele>102.773254</ele>
        <time>2013-03-04T10:41:56Z</time>
      </trkpt>
      <trkpt lat="44.88702" lon="0.51059">
        <ele>102.91272</ele>
        <time>2013-03-04T10:41:58Z</time>
      </trkpt>
      <trkpt lat="44.8871" lon="0.51056">
        <ele>103.069214</ele>
        <time>2013-03-04T10:42:00Z</time>
      </trkpt>
      <trkpt lat="44.88717" lon="0.51054">
        <ele>103.222412</ele>
        <time>2013-03-04T10:42:02Z</time>
      </trkpt>
      <trkpt lat="44.88724" lon="0.51052">
        <ele>103.398499</ele>
        <time>2013-03-04T10:42:04Z</time>
      </trkpt>
      <trkpt lat="44.88732" lon="0.5105">
        <ele>103.585022</ele>
        <time>2013-03-04T10:42:06Z</time>
      </trkpt>
      <trkpt lat="44.88739" lon="0.51049">
        <ele>103.7771</ele>
        <time>2013-03-04T10:42:08Z</time>
      </trkpt>
      <trkpt lat="44.88753" lon="0.51047">
        <ele>104.345459</ele>
        <time>2013-03-04T10:42:12Z</time>
      </trkpt>
      <trkpt lat="44.88761" lon="0.51046">
        <ele>104.871643</ele>
        <time>2013-03-04T10:42:14Z</time>
      </trkpt>
      <trkpt lat="44.88766" lon="0.51046">
        <ele>105.177734</ele>
        <time>2013-03-04T10:42:16Z</time>
      </trkpt>
      <trkpt lat="44.88771" lon="0.51046">
        <ele>105.520264</ele>
        <time>2013-03-04T10:42:18Z</time>
      </trkpt>
      <trkpt lat="44.88777" lon="0.51047">
        <ele>105.938477</ele>
        <time>2013-03-04T10:42:20Z</time>
      </trkpt>
      <trkpt lat="44.88786" lon="0.51048">
        <ele>106.527405</ele>
        <time>2013-03-04T10:42:22Z</time>
      </trkpt>
      <trkpt lat="44.88793" lon="0.51048">
        <ele>107.040955</ele>
        <time>2013-03-04T10:42:24Z</time>
      </trkpt>
      <trkpt lat="44.88796" lon="0.51036">
        <ele>106.849426</ele>
        <time>2013-03-04T10:42:25Z</time>
      </trkpt>
      <trkpt lat="44.88799" lon="0.51028">
        <ele>106.783386</ele>
        <time>2013-03-04T10:42:27Z</time>
      </trkpt>
      <trkpt lat="44.88803" lon="0.5103">
        <ele>107.138794</ele>
        <time>2013-03-04T10:42:29Z</time>
      </trkpt>
      <trkpt lat="44.88803" lon="0.51007">
        <ele>106.38739</ele>
        <time>2013-03-04T10:42:31Z</time>
      </trkpt>
      <trkpt lat="44.88803" lon="0.50996">
        <ele>105.898499</ele>
        <time>2013-03-04T10:42:33Z</time>
      </trkpt>
      <trkpt lat="44.88802" lon="0.50983">
        <ele>105.01355</ele>
        <time>2013-03-04T10:42:34Z</time>
      </trkpt>
      <trkpt lat="44.88802" lon="0.5096">
        <ele>103.421204</ele>
        <time>2013-03-04T10:42:36Z</time>
      </trkpt>
      <trkpt lat="44.88802" lon="0.50951">
        <ele>102.771179</ele>
        <time>2013-03-04T10:42:37Z</time>
      </trkpt>
      <trkpt lat="44.88802" lon="0.50941">
        <ele>102.108032</ele>
        <time>2013-03-04T10:42:38Z</time>
      </trkpt>
      <trkpt lat="44.88801" lon="0.50932">
        <ele>101.461792</ele>
        <time>2013-03-04T10:42:39Z</time>
      </trkpt>
      <trkpt lat="44.88801" lon="0.50904">
        <ele>99.783142</ele>
        <time>2013-03-04T10:42:41Z</time>
      </trkpt>
      <trkpt lat="44.88801" lon="0.50893">
        <ele>99.18335</ele>
        <time>2013-03-04T10:42:42Z</time>
      </trkpt>
      <trkpt lat="44.88801" lon="0.50879">
        <ele>98.431702</ele>
        <time>2013-03-04T10:42:43Z</time>
      </trkpt>
      <trkpt lat="44.888" lon="0.50856">
        <ele>97.213013</ele>
        <time>2013-03-04T10:42:45Z</time>
      </trkpt>
      <trkpt lat="44.88801" lon="0.50837">
        <ele>96.236145</ele>
        <time>2013-03-04T10:42:47Z</time>
      </trkpt>
      <trkpt lat="44.888" lon="0.5085">
        <ele>96.900574</ele>
        <time>2013-03-04T10:42:48Z</time>
      </trkpt>
      <trkpt lat="44.8881" lon="0.50804">
        <ele>96.980469</ele>
        <time>2013-03-04T10:42:50Z</time>
      </trkpt>
      <trkpt lat="44.88821" lon="0.50793">
        <ele>97.53125</ele>
        <time>2013-03-04T10:42:52Z</time>
      </trkpt>
      <trkpt lat="44.88837" lon="0.50783">
        <ele>98.133423</ele>
        <time>2013-03-04T10:42:55Z</time>
      </trkpt>
      <trkpt lat="44.88842" lon="0.50781">
        <ele>98.285034</ele>
        <time>2013-03-04T10:42:56Z</time>
      </trkpt>
      <trkpt lat="44.88847" lon="0.50778">
        <ele>98.449524</ele>
        <time>2013-03-04T10:42:58Z</time>
      </trkpt>
      <trkpt lat="44.88855" lon="0.50774">
        <ele>98.662537</ele>
        <time>2013-03-04T10:43:00Z</time>
      </trkpt>
      <trkpt lat="44.88872" lon="0.50767">
        <ele>99.105957</ele>
        <time>2013-03-04T10:43:04Z</time>
      </trkpt>
      <trkpt lat="44.88881" lon="0.50763">
        <ele>99.331421</ele>
        <time>2013-03-04T10:43:06Z</time>
      </trkpt>
      <trkpt lat="44.88888" lon="0.50761">
        <ele>99.470703</ele>
        <time>2013-03-04T10:43:08Z</time>
      </trkpt>
      <trkpt lat="44.88902" lon="0.50756">
        <ele>99.759949</ele>
        <time>2013-03-04T10:43:12Z</time>
      </trkpt>
      <trkpt lat="44.8891" lon="0.50753">
        <ele>99.903259</ele>
        <time>2013-03-04T10:43:14Z</time>
      </trkpt>
      <trkpt lat="44.88918" lon="0.50751">
        <ele>100.06488</ele>
        <time>2013-03-04T10:43:16Z</time>
      </trkpt>
      <trkpt lat="44.88926" lon="0.50748">
        <ele>100.461914</ele>
        <time>2013-03-04T10:43:18Z</time>
      </trkpt>
      <trkpt lat="44.88936" lon="0.50745">
        <ele>100.977905</ele>
        <time>2013-03-04T10:43:20Z</time>
      </trkpt>
      <trkpt lat="44.88941" lon="0.50743">
        <ele>101.291748</ele>
        <time>2013-03-04T10:43:22Z</time>
      </trkpt>
      <trkpt lat="44.88951" lon="0.5074">
        <ele>101.796204</ele>
        <time>2013-03-04T10:43:24Z</time>
      </trkpt>
      <trkpt lat="44.88958" lon="0.50737">
        <ele>102.246216</ele>
        <time>2013-03-04T10:43:27Z</time>
      </trkpt>
      <trkpt lat="44.88965" lon="0.50734">
        <ele>102.636108</ele>
        <time>2013-03-04T10:43:28Z</time>
      </trkpt>
      <trkpt lat="44.88972" lon="0.50731">
        <ele>103.060913</ele>
        <time>2013-03-04T10:43:30Z</time>
      </trkpt>
      <trkpt lat="44.88981" lon="0.50727">
        <ele>103.568665</ele>
        <time>2013-03-04T10:43:32Z</time>
      </trkpt>
      <trkpt lat="44.88987" lon="0.50723">
        <ele>103.967346</ele>
        <time>2013-03-04T10:43:34Z</time>
      </trkpt>
      <trkpt lat="44.88994" lon="0.50719">
        <ele>104.412537</ele>
        <time>2013-03-04T10:43:36Z</time>
      </trkpt>
      <trkpt lat="44.89" lon="0.50715">
        <ele>104.854248</ele>
        <time>2013-03-04T10:43:38Z</time>
      </trkpt>
      <trkpt lat="44.89007" lon="0.50711">
        <ele>105.211548</ele>
        <time>2013-03-04T10:43:40Z</time>
      </trkpt>
      <trkpt lat="44.89012" lon="0.50708">
        <ele>105.429321</ele>
        <time>2013-03-04T10:43:41Z</time>
      </trkpt>
      <trkpt lat="44.89019" lon="0.50704">
        <ele>105.772461</ele>
        <time>2013-03-04T10:43:43Z</time>
      </trkpt>
      <trkpt lat="44.89026" lon="0.507">
        <ele>106.093994</ele>
        <time>2013-03-04T10:43:45Z</time>
      </trkpt>
      <trkpt lat="44.89033" lon="0.50696">
        <ele>106.364075</ele>
        <time>2013-03-04T10:43:47Z</time>
      </trkpt>
      <trkpt lat="44.89039" lon="0.50691">
        <ele>106.617432</ele>
        <time>2013-03-04T10:43:49Z</time>
      </trkpt>
      <trkpt lat="44.89046" lon="0.50686">
        <ele>106.886597</ele>
        <time>2013-03-04T10:43:52Z</time>
      </trkpt>
      <trkpt lat="44.8905" lon="0.50681">
        <ele>107.070862</ele>
        <time>2013-03-04T10:43:53Z</time>
      </trkpt>
      <trkpt lat="44.89056" lon="0.50676">
        <ele>107.278687</ele>
        <time>2013-03-04T10:43:55Z</time>
      </trkpt>
      <trkpt lat="44.89062" lon="0.50669">
        <ele>107.483154</ele>
        <time>2013-03-04T10:43:57Z</time>
      </trkpt>
      <trkpt lat="44.89068" lon="0.50662">
        <ele>107.796082</ele>
        <time>2013-03-04T10:43:59Z</time>
      </trkpt>
      <trkpt lat="44.89074" lon="0.50654">
        <ele>108.181824</ele>
        <time>2013-03-04T10:44:01Z</time>
      </trkpt>
      <trkpt lat="44.89079" lon="0.50647">
        <ele>108.591797</ele>
        <time>2013-03-04T10:44:03Z</time>
      </trkpt>
      <trkpt lat="44.89084" lon="0.50639">
        <ele>109.008545</ele>
        <time>2013-03-04T10:44:05Z</time>
      </trkpt>
      <trkpt lat="44.89088" lon="0.50633">
        <ele>109.481689</ele>
        <time>2013-03-04T10:44:07Z</time>
      </trkpt>
      <trkpt lat="44.89092" lon="0.50627">
        <ele>109.89447</ele>
        <time>2013-03-04T10:44:09Z</time>
      </trkpt>
      <trkpt lat="44.89096" lon="0.50621">
        <ele>110.322693</ele>
        <time>2013-03-04T10:44:11Z</time>
      </trkpt>
      <trkpt lat="44.891" lon="0.50616">
        <ele>110.712646</ele>
        <time>2013-03-04T10:44:13Z</time>
      </trkpt>
      <trkpt lat="44.89104" lon="0.50611">
        <ele>111.060852</ele>
        <time>2013-03-04T10:44:15Z</time>
      </trkpt>
      <trkpt lat="44.89107" lon="0.50605">
        <ele>111.422363</ele>
        <time>2013-03-04T10:44:17Z</time>
      </trkpt>
      <trkpt lat="44.8911" lon="0.50601">
        <ele>111.732727</ele>
        <time>2013-03-04T10:44:19Z</time>
      </trkpt>
      <trkpt lat="44.8911" lon="0.50585">
        <ele>112.19928</ele>
        <time>2013-03-04T10:44:22Z</time>
      </trkpt>
      <trkpt lat="44.89115" lon="0.50581">
        <ele>112.745789</ele>
        <time>2013-03-04T10:44:24Z</time>
      </trkpt>
      <trkpt lat="44.89122" lon="0.50575">
        <ele>113.41156</ele>
        <time>2013-03-04T10:44:26Z</time>
      </trkpt>
      <trkpt lat="44.89126" lon="0.50569">
        <ele>114.067993</ele>
        <time>2013-03-04T10:44:28Z</time>
      </trkpt>
      <trkpt lat="44.89129" lon="0.50562">
        <ele>114.715271</ele>
        <time>2013-03-04T10:44:30Z</time>
      </trkpt>
      <trkpt lat="44.89131" lon="0.50554">
        <ele>115.348694</ele>
        <time>2013-03-04T10:44:32Z</time>
      </trkpt>
      <trkpt lat="44.89135" lon="0.50547">
        <ele>116.002441</ele>
        <time>2013-03-04T10:44:34Z</time>
      </trkpt>
      <trkpt lat="44.89136" lon="0.50539">
        <ele>116.565247</ele>
        <time>2013-03-04T10:44:36Z</time>
      </trkpt>
      <trkpt lat="44.89133" lon="0.50531">
        <ele>117.046265</ele>
        <time>2013-03-04T10:44:39Z</time>
      </trkpt>
      <trkpt lat="44.89131" lon="0.50524">
        <ele>117.4599</ele>
        <time>2013-03-04T10:44:41Z</time>
      </trkpt>
      <trkpt lat="44.89131" lon="0.50516">
        <ele>117.994263</ele>
        <time>2013-03-04T10:44:43Z</time>
      </trkpt>
      <trkpt lat="44.89131" lon="0.50508">
        <ele>118.55719</ele>
        <time>2013-03-04T10:44:45Z</time>
      </trkpt>
      <trkpt lat="44.89133" lon="0.50501">
        <ele>119.15033</ele>
        <time>2013-03-04T10:44:47Z</time>
      </trkpt>
      <trkpt lat="44.89135" lon="0.50493">
        <ele>119.560059</ele>
        <time>2013-03-04T10:44:49Z</time>
      </trkpt>
      <trkpt lat="44.89136" lon="0.50486">
        <ele>119.945312</ele>
        <time>2013-03-04T10:44:51Z</time>
      </trkpt>
      <trkpt lat="44.89137" lon="0.50478">
        <ele>120.324219</ele>
        <time>2013-03-04T10:44:53Z</time>
      </trkpt>
      <trkpt lat="44.89137" lon="0.50471">
        <ele>120.70282</ele>
        <time>2013-03-04T10:44:55Z</time>
      </trkpt>
      <trkpt lat="44.89138" lon="0.50463">
        <ele>121.105408</ele>
        <time>2013-03-04T10:44:57Z</time>
      </trkpt>
      <trkpt lat="44.8914" lon="0.50456">
        <ele>121.498779</ele>
        <time>2013-03-04T10:44:59Z</time>
      </trkpt>
      <trkpt lat="44.89147" lon="0.50451">
        <ele>121.868835</ele>
        <time>2013-03-04T10:45:01Z</time>
      </trkpt>
      <trkpt lat="44.89153" lon="0.50451">
        <ele>122.032898</ele>
        <time>2013-03-04T10:45:03Z</time>
      </trkpt>
      <trkpt lat="44.8916" lon="0.50455">
        <ele>121.977539</ele>
        <time>2013-03-04T10:45:05Z</time>
      </trkpt>
      <trkpt lat="44.89166" lon="0.5046">
        <ele>121.887634</ele>
        <time>2013-03-04T10:45:07Z</time>
      </trkpt>
      <trkpt lat="44.89172" lon="0.50465">
        <ele>121.80896</ele>
        <time>2013-03-04T10:45:09Z</time>
      </trkpt>
      <trkpt lat="44.89179" lon="0.50467">
        <ele>121.829773</ele>
        <time>2013-03-04T10:45:11Z</time>
      </trkpt>
      <trkpt lat="44.89186" lon="0.5047">
        <ele>121.893494</ele>
        <time>2013-03-04T10:45:13Z</time>
      </trkpt>
      <trkpt lat="44.89194" lon="0.50471">
        <ele>122.039856</ele>
        <time>2013-03-04T10:45:15Z</time>
      </trkpt>
      <trkpt lat="44.892" lon="0.5047">
        <ele>122.2052</ele>
        <time>2013-03-04T10:45:16Z</time>
      </trkpt>
      <trkpt lat="44.89205" lon="0.5047">
        <ele>122.327332</ele>
        <time>2013-03-04T10:45:17Z</time>
      </trkpt>
      <trkpt lat="44.8921" lon="0.5047">
        <ele>122.441162</ele>
        <time>2013-03-04T10:45:18Z</time>
      </trkpt>
      <trkpt lat="44.89219" lon="0.50469">
        <ele>122.649475</ele>
        <time>2013-03-04T10:45:20Z</time>
      </trkpt>
      <trkpt lat="44.89227" lon="0.50468">
        <ele>122.888855</ele>
        <time>2013-03-04T10:45:22Z</time>
      </trkpt>
      <trkpt lat="44.89232" lon="0.50466">
        <ele>123.01239</ele>
        <time>2013-03-04T10:45:23Z</time>
      </trkpt>
      <trkpt lat="44.8924" lon="0.50464">
        <ele>123.23175</ele>
        <time>2013-03-04T10:45:25Z</time>
      </trkpt>
      <trkpt lat="44.89249" lon="0.50461">
        <ele>123.452942</ele>
        <time>2013-03-04T10:45:27Z</time>
      </trkpt>
      <trkpt lat="44.89254" lon="0.50458">
        <ele>123.633301</ele>
        <time>2013-03-04T10:45:28Z</time>
      </trkpt>
      <trkpt lat="44.89261" lon="0.50444">
        <ele>124.051941</ele>
        <time>2013-03-04T10:45:30Z</time>
      </trkpt>
      <trkpt lat="44.8927" lon="0.50439">
        <ele>124.439331</ele>
        <time>2013-03-04T10:45:32Z</time>
      </trkpt>
      <trkpt lat="44.89275" lon="0.50438">
        <ele>124.633545</ele>
        <time>2013-03-04T10:45:33Z</time>
      </trkpt>
      <trkpt lat="44.89286" lon="0.50435">
        <ele>125.081299</ele>
        <time>2013-03-04T10:45:35Z</time>
      </trkpt>
      <trkpt lat="44.89296" lon="0.50431">
        <ele>125.472351</ele>
        <time>2013-03-04T10:45:37Z</time>
      </trkpt>
      <trkpt lat="44.89301" lon="0.50428">
        <ele>125.676331</ele>
        <time>2013-03-04T10:45:38Z</time>
      </trkpt>
      <trkpt lat="44.89305" lon="0.50427">
        <ele>125.875854</ele>
        <time>2013-03-04T10:45:39Z</time>
      </trkpt>
      <trkpt lat="44.89311" lon="0.50424">
        <ele>126.093079</ele>
        <time>2013-03-04T10:45:40Z</time>
      </trkpt>
      <trkpt lat="44.89324" lon="0.5042">
        <ele>126.620483</ele>
        <time>2013-03-04T10:45:42Z</time>
      </trkpt>
      <trkpt lat="44.89329" lon="0.50419">
        <ele>126.811401</ele>
        <time>2013-03-04T10:45:43Z</time>
      </trkpt>
      <trkpt lat="44.89334" lon="0.50416">
        <ele>126.937927</ele>
        <time>2013-03-04T10:45:44Z</time>
      </trkpt>
      <trkpt lat="44.89343" lon="0.50416">
        <ele>126.706299</ele>
        <time>2013-03-04T10:45:46Z</time>
      </trkpt>
      <trkpt lat="44.89352" lon="0.50412">
        <ele>126.27063</ele>
        <time>2013-03-04T10:45:48Z</time>
      </trkpt>
      <trkpt lat="44.89364" lon="0.50407">
        <ele>125.82782</ele>
        <time>2013-03-04T10:45:50Z</time>
      </trkpt>
      <trkpt lat="44.89373" lon="0.50402">
        <ele>125.515198</ele>
        <time>2013-03-04T10:45:52Z</time>
      </trkpt>
      <trkpt lat="44.89389" lon="0.50396">
        <ele>125.175171</ele>
        <time>2013-03-04T10:45:56Z</time>
      </trkpt>
      <trkpt lat="44.89399" lon="0.50392">
        <ele>125.050964</ele>
        <time>2013-03-04T10:45:58Z</time>
      </trkpt>
      <trkpt lat="44.89419" lon="0.50384">
        <ele>124.984253</ele>
        <time>2013-03-04T10:46:03Z</time>
      </trkpt>
      <trkpt lat="44.89426" lon="0.50381">
        <ele>124.935059</ele>
        <time>2013-03-04T10:46:05Z</time>
      </trkpt>
      <trkpt lat="44.89437" lon="0.50377">
        <ele>124.872925</ele>
        <time>2013-03-04T10:46:07Z</time>
      </trkpt>
      <trkpt lat="44.89442" lon="0.50375">
        <ele>124.849731</ele>
        <time>2013-03-04T10:46:08Z</time>
      </trkpt>
      <trkpt lat="44.8945" lon="0.50372">
        <ele>124.816406</ele>
        <time>2013-03-04T10:46:10Z</time>
      </trkpt>
      <trkpt lat="44.89458" lon="0.50368">
        <ele>124.791016</ele>
        <time>2013-03-04T10:46:12Z</time>
      </trkpt>
      <trkpt lat="44.89464" lon="0.50366">
        <ele>124.780029</ele>
        <time>2013-03-04T10:46:13Z</time>
      </trkpt>
      <trkpt lat="44.89473" lon="0.50361">
        <ele>124.77124</ele>
        <time>2013-03-04T10:46:15Z</time>
      </trkpt>
      <trkpt lat="44.89483" lon="0.50358">
        <ele>124.769653</ele>
        <time>2013-03-04T10:46:17Z</time>
      </trkpt>
      <trkpt lat="44.89488" lon="0.50356">
        <ele>124.773438</ele>
        <time>2013-03-04T10:46:18Z</time>
      </trkpt>
      <trkpt lat="44.89494" lon="0.50353">
        <ele>124.781677</ele>
        <time>2013-03-04T10:46:19Z</time>
      </trkpt>
      <trkpt lat="44.89506" lon="0.50348">
        <ele>124.926575</ele>
        <time>2013-03-04T10:46:21Z</time>
      </trkpt>
      <trkpt lat="44.89513" lon="0.50345">
        <ele>125.062866</ele>
        <time>2013-03-04T10:46:22Z</time>
      </trkpt>
      <trkpt lat="44.8952" lon="0.50342">
        <ele>125.188477</ele>
        <time>2013-03-04T10:46:23Z</time>
      </trkpt>
      <trkpt lat="44.89535" lon="0.50337">
        <ele>125.412415</ele>
        <time>2013-03-04T10:46:25Z</time>
      </trkpt>
      <trkpt lat="44.89542" lon="0.50334">
        <ele>125.498657</ele>
        <time>2013-03-04T10:46:26Z</time>
      </trkpt>
      <trkpt lat="44.89556" lon="0.50328">
        <ele>125.471191</ele>
        <time>2013-03-04T10:46:28Z</time>
      </trkpt>
      <trkpt lat="44.89562" lon="0.50325">
        <ele>125.411926</ele>
        <time>2013-03-04T10:46:29Z</time>
      </trkpt>
      <trkpt lat="44.89579" lon="0.50318">
        <ele>125.105042</ele>
        <time>2013-03-04T10:46:31Z</time>
      </trkpt>
      <trkpt lat="44.89594" lon="0.50312">
        <ele>124.674133</ele>
        <time>2013-03-04T10:46:33Z</time>
      </trkpt>
      <trkpt lat="44.89602" lon="0.50309">
        <ele>124.465759</ele>
        <time>2013-03-04T10:46:34Z</time>
      </trkpt>
      <trkpt lat="44.89609" lon="0.50307">
        <ele>124.280762</ele>
        <time>2013-03-04T10:46:35Z</time>
      </trkpt>
      <trkpt lat="44.89617" lon="0.50304">
        <ele>124.108887</ele>
        <time>2013-03-04T10:46:36Z</time>
      </trkpt>
      <trkpt lat="44.89628" lon="0.50299">
        <ele>123.851807</ele>
        <time>2013-03-04T10:46:38Z</time>
      </trkpt>
      <trkpt lat="44.89634" lon="0.50297">
        <ele>123.731567</ele>
        <time>2013-03-04T10:46:39Z</time>
      </trkpt>
      <trkpt lat="44.89647" lon="0.50292">
        <ele>123.507812</ele>
        <time>2013-03-04T10:46:41Z</time>
      </trkpt>
      <trkpt lat="44.89654" lon="0.50289">
        <ele>123.395996</ele>
        <time>2013-03-04T10:46:43Z</time>
      </trkpt>
      <trkpt lat="44.89663" lon="0.50285">
        <ele>123.260193</ele>
        <time>2013-03-04T10:46:45Z</time>
      </trkpt>
      <trkpt lat="44.89673" lon="0.50281">
        <ele>123.327454</ele>
        <time>2013-03-04T10:46:47Z</time>
      </trkpt>
      <trkpt lat="44.89681" lon="0.50277">
        <ele>123.506287</ele>
        <time>2013-03-04T10:46:49Z</time>
      </trkpt>
      <trkpt lat="44.89689" lon="0.50274">
        <ele>123.690552</ele>
        <time>2013-03-04T10:46:51Z</time>
      </trkpt>
      <trkpt lat="44.89693" lon="0.50272">
        <ele>123.806519</ele>
        <time>2013-03-04T10:46:52Z</time>
      </trkpt>
      <trkpt lat="44.89699" lon="0.50269">
        <ele>123.994507</ele>
        <time>2013-03-04T10:46:54Z</time>
      </trkpt>
      <trkpt lat="44.89704" lon="0.50267">
        <ele>124.143127</ele>
        <time>2013-03-04T10:46:56Z</time>
      </trkpt>
      <trkpt lat="44.89714" lon="0.50287">
        <ele>124.829468</ele>
        <time>2013-03-04T10:47:01Z</time>
      </trkpt>
      <trkpt lat="44.89718" lon="0.5029">
        <ele>125.008057</ele>
        <time>2013-03-04T10:47:03Z</time>
      </trkpt>
      <trkpt lat="44.89722" lon="0.50293">
        <ele>125.171692</ele>
        <time>2013-03-04T10:47:04Z</time>
      </trkpt>
      <trkpt lat="44.8973" lon="0.50299">
        <ele>125.454285</ele>
        <time>2013-03-04T10:47:06Z</time>
      </trkpt>
      <trkpt lat="44.89734" lon="0.50302">
        <ele>125.588928</ele>
        <time>2013-03-04T10:47:07Z</time>
      </trkpt>
      <trkpt lat="44.89743" lon="0.50309">
        <ele>125.836853</ele>
        <time>2013-03-04T10:47:09Z</time>
      </trkpt>
      <trkpt lat="44.89747" lon="0.50312">
        <ele>125.935974</ele>
        <time>2013-03-04T10:47:10Z</time>
      </trkpt>
      <trkpt lat="44.89755" lon="0.50318">
        <ele>126.136902</ele>
        <time>2013-03-04T10:47:12Z</time>
      </trkpt>
      <trkpt lat="44.89759" lon="0.50322">
        <ele>126.26532</ele>
        <time>2013-03-04T10:47:14Z</time>
      </trkpt>
      <trkpt lat="44.89766" lon="0.50328">
        <ele>126.430908</ele>
        <time>2013-03-04T10:47:17Z</time>
      </trkpt>
      <trkpt lat="44.89771" lon="0.50331">
        <ele>126.533569</ele>
        <time>2013-03-04T10:47:20Z</time>
      </trkpt>
      <trkpt lat="44.89778" lon="0.50335">
        <ele>126.668884</ele>
        <time>2013-03-04T10:47:23Z</time>
      </trkpt>
      <trkpt lat="44.89784" lon="0.50338">
        <ele>126.830383</ele>
        <time>2013-03-04T10:47:25Z</time>
      </trkpt>
      <trkpt lat="44.8979" lon="0.5034">
        <ele>126.988342</ele>
        <time>2013-03-04T10:47:27Z</time>
      </trkpt>
      <trkpt lat="44.89796" lon="0.50341">
        <ele>127.147766</ele>
        <time>2013-03-04T10:47:29Z</time>
      </trkpt>
      <trkpt lat="44.89802" lon="0.50342">
        <ele>127.314087</ele>
        <time>2013-03-04T10:47:31Z</time>
      </trkpt>
      <trkpt lat="44.89807" lon="0.50343">
        <ele>127.435181</ele>
        <time>2013-03-04T10:47:33Z</time>
      </trkpt>
      <trkpt lat="44.89812" lon="0.50343">
        <ele>127.566895</ele>
        <time>2013-03-04T10:47:35Z</time>
      </trkpt>
      <trkpt lat="44.89817" lon="0.50344">
        <ele>127.704346</ele>
        <time>2013-03-04T10:47:38Z</time>
      </trkpt>
      <trkpt lat="44.89823" lon="0.50344">
        <ele>127.858704</ele>
        <time>2013-03-04T10:47:41Z</time>
      </trkpt>
      <trkpt lat="44.89829" lon="0.50344">
        <ele>128.015625</ele>
        <time>2013-03-04T10:47:44Z</time>
      </trkpt>
      <trkpt lat="44.89834" lon="0.50344">
        <ele>128.102844</ele>
        <time>2013-03-04T10:47:46Z</time>
      </trkpt>
      <trkpt lat="44.8984" lon="0.50344">
        <ele>127.953186</ele>
        <time>2013-03-04T10:47:48Z</time>
      </trkpt>
      <trkpt lat="44.89843" lon="0.50344">
        <ele>127.863403</ele>
        <time>2013-03-04T10:47:53Z</time>
      </trkpt>
      <trkpt lat="44.89846" lon="0.50369">
        <ele>127.91333</ele>
        <time>2013-03-04T10:47:54Z</time>
      </trkpt>
      <trkpt lat="44.89849" lon="0.50378">
        <ele>127.837341</ele>
        <time>2013-03-04T10:47:57Z</time>
      </trkpt>
      <trkpt lat="44.89852" lon="0.50383">
        <ele>127.769897</ele>
        <time>2013-03-04T10:47:58Z</time>
      </trkpt>
      <trkpt lat="44.89855" lon="0.50393">
        <ele>127.617493</ele>
        <time>2013-03-04T10:48:00Z</time>
      </trkpt>
      <trkpt lat="44.89859" lon="0.50402">
        <ele>127.444885</ele>
        <time>2013-03-04T10:48:02Z</time>
      </trkpt>
      <trkpt lat="44.89862" lon="0.5041">
        <ele>127.257141</ele>
        <time>2013-03-04T10:48:04Z</time>
      </trkpt>
      <trkpt lat="44.89866" lon="0.50418">
        <ele>127.070984</ele>
        <time>2013-03-04T10:48:06Z</time>
      </trkpt>
      <trkpt lat="44.8987" lon="0.50427">
        <ele>127.08728</ele>
        <time>2013-03-04T10:48:08Z</time>
      </trkpt>
      <trkpt lat="44.89893" lon="0.50453">
        <ele>126.609375</ele>
        <time>2013-03-04T10:48:17Z</time>
      </trkpt>
      <trkpt lat="44.899" lon="0.50457">
        <ele>126.347229</ele>
        <time>2013-03-04T10:48:19Z</time>
      </trkpt>
      <trkpt lat="44.89907" lon="0.5046">
        <ele>126.099304</ele>
        <time>2013-03-04T10:48:21Z</time>
      </trkpt>
      <trkpt lat="44.89919" lon="0.50461">
        <ele>125.497803</ele>
        <time>2013-03-04T10:48:23Z</time>
      </trkpt>
      <trkpt lat="44.89927" lon="0.50459">
        <ele>125.177124</ele>
        <time>2013-03-04T10:48:25Z</time>
      </trkpt>
      <trkpt lat="44.89939" lon="0.50463">
        <ele>124.827942</ele>
        <time>2013-03-04T10:48:27Z</time>
      </trkpt>
      <trkpt lat="44.89944" lon="0.50464">
        <ele>124.654602</ele>
        <time>2013-03-04T10:48:28Z</time>
      </trkpt>
      <trkpt lat="44.89957" lon="0.5046">
        <ele>124.11615</ele>
        <time>2013-03-04T10:48:30Z</time>
      </trkpt>
      <trkpt lat="44.89966" lon="0.50458">
        <ele>123.731628</ele>
        <time>2013-03-04T10:48:32Z</time>
      </trkpt>
      <trkpt lat="44.89972" lon="0.50461">
        <ele>123.535828</ele>
        <time>2013-03-04T10:48:34Z</time>
      </trkpt>
      <trkpt lat="44.89975" lon="0.50455">
        <ele>123.331421</ele>
        <time>2013-03-04T10:48:36Z</time>
      </trkpt>
      <trkpt lat="44.89984" lon="0.50457">
        <ele>123.048645</ele>
        <time>2013-03-04T10:48:38Z</time>
      </trkpt>
      <trkpt lat="44.89991" lon="0.50459">
        <ele>122.830933</ele>
        <time>2013-03-04T10:48:40Z</time>
      </trkpt>
      <trkpt lat="44.89998" lon="0.50463">
        <ele>122.624878</ele>
        <time>2013-03-04T10:48:42Z</time>
      </trkpt>
      <trkpt lat="44.90005" lon="0.50467">
        <ele>122.726379</ele>
        <time>2013-03-04T10:48:44Z</time>
      </trkpt>
      <trkpt lat="44.9001" lon="0.50471">
        <ele>122.90802</ele>
        <time>2013-03-04T10:48:46Z</time>
      </trkpt>
      <trkpt lat="44.90016" lon="0.50476">
        <ele>123.067932</ele>
        <time>2013-03-04T10:48:48Z</time>
      </trkpt>
      <trkpt lat="44.90022" lon="0.5048">
        <ele>123.221252</ele>
        <time>2013-03-04T10:48:50Z</time>
      </trkpt>
      <trkpt lat="44.90029" lon="0.50488">
        <ele>123.360596</ele>
        <time>2013-03-04T10:48:52Z</time>
      </trkpt>
      <trkpt lat="44.90035" lon="0.50494">
        <ele>123.441833</ele>
        <time>2013-03-04T10:48:54Z</time>
      </trkpt>
      <trkpt lat="44.9004" lon="0.50498">
        <ele>123.492188</ele>
        <time>2013-03-04T10:48:56Z</time>
      </trkpt>
      <trkpt lat="44.90045" lon="0.50502">
        <ele>123.496765</ele>
        <time>2013-03-04T10:48:58Z</time>
      </trkpt>
      <trkpt lat="44.90051" lon="0.50504">
        <ele>123.477966</ele>
        <time>2013-03-04T10:49:00Z</time>
      </trkpt>
      <trkpt lat="44.90056" lon="0.50508">
        <ele>123.402954</ele>
        <time>2013-03-04T10:49:02Z</time>
      </trkpt>
      <trkpt lat="44.90059" lon="0.50514">
        <ele>123.270264</ele>
        <time>2013-03-04T10:49:04Z</time>
      </trkpt>
      <trkpt lat="44.90063" lon="0.5052">
        <ele>123.099609</ele>
        <time>2013-03-04T10:49:06Z</time>
      </trkpt>
      <trkpt lat="44.90067" lon="0.50526">
        <ele>122.943726</ele>
        <time>2013-03-04T10:49:08Z</time>
      </trkpt>
      <trkpt lat="44.90072" lon="0.50529">
        <ele>122.859497</ele>
        <time>2013-03-04T10:49:09Z</time>
      </trkpt>
      <trkpt lat="44.90077" lon="0.5053">
        <ele>122.881775</ele>
        <time>2013-03-04T10:49:11Z</time>
      </trkpt>
      <trkpt lat="44.90081" lon="0.5053">
        <ele>122.90918</ele>
        <time>2013-03-04T10:49:13Z</time>
      </trkpt>
      <trkpt lat="44.90088" lon="0.50528">
        <ele>123.161499</ele>
        <time>2013-03-04T10:49:16Z</time>
      </trkpt>
      <trkpt lat="44.90093" lon="0.50529">
        <ele>123.366821</ele>
        <time>2013-03-04T10:49:18Z</time>
      </trkpt>
      <trkpt lat="44.90099" lon="0.50529">
        <ele>123.574219</ele>
        <time>2013-03-04T10:49:20Z</time>
      </trkpt>
      <trkpt lat="44.90104" lon="0.50528">
        <ele>123.784485</ele>
        <time>2013-03-04T10:49:22Z</time>
      </trkpt>
      <trkpt lat="44.90108" lon="0.50526">
        <ele>124.067688</ele>
        <time>2013-03-04T10:49:24Z</time>
      </trkpt>
      <trkpt lat="44.90113" lon="0.50522">
        <ele>124.385742</ele>
        <time>2013-03-04T10:49:26Z</time>
      </trkpt>
      <trkpt lat="44.90118" lon="0.50515">
        <ele>124.781494</ele>
        <time>2013-03-04T10:49:28Z</time>
      </trkpt>
      <trkpt lat="44.90123" lon="0.50511">
        <ele>125.102417</ele>
        <time>2013-03-04T10:49:30Z</time>
      </trkpt>
      <trkpt lat="44.90128" lon="0.50507">
        <ele>125.396484</ele>
        <time>2013-03-04T10:49:32Z</time>
      </trkpt>
      <trkpt lat="44.90133" lon="0.50503">
        <ele>125.712585</ele>
        <time>2013-03-04T10:49:34Z</time>
      </trkpt>
      <trkpt lat="44.9014" lon="0.50498">
        <ele>126.082825</ele>
        <time>2013-03-04T10:49:36Z</time>
      </trkpt>
      <trkpt lat="44.90145" lon="0.50494">
        <ele>126.424866</ele>
        <time>2013-03-04T10:49:38Z</time>
      </trkpt>
      <trkpt lat="44.90152" lon="0.50491">
        <ele>126.77594</ele>
        <time>2013-03-04T10:49:40Z</time>
      </trkpt>
      <trkpt lat="44.90159" lon="0.50487">
        <ele>127.168823</ele>
        <time>2013-03-04T10:49:42Z</time>
      </trkpt>
      <trkpt lat="44.90171" lon="0.50485">
        <ele>127.73822</ele>
        <time>2013-03-04T10:49:44Z</time>
      </trkpt>
      <trkpt lat="44.90179" lon="0.50486">
        <ele>128.065002</ele>
        <time>2013-03-04T10:49:46Z</time>
      </trkpt>
      <trkpt lat="44.90184" lon="0.50488">
        <ele>128.20929</ele>
        <time>2013-03-04T10:49:47Z</time>
      </trkpt>
      <trkpt lat="44.90189" lon="0.50493">
        <ele>128.259705</ele>
        <time>2013-03-04T10:49:48Z</time>
      </trkpt>
      <trkpt lat="44.90195" lon="0.50502">
        <ele>128.351807</ele>
        <time>2013-03-04T10:49:50Z</time>
      </trkpt>
      <trkpt lat="44.9019" lon="0.50509">
        <ele>127.966919</ele>
        <time>2013-03-04T10:49:52Z</time>
      </trkpt>
      <trkpt lat="44.90191" lon="0.50521">
        <ele>127.892334</ele>
        <time>2013-03-04T10:49:54Z</time>
      </trkpt>
      <trkpt lat="44.90193" lon="0.50531">
        <ele>127.839844</ele>
        <time>2013-03-04T10:49:56Z</time>
      </trkpt>
      <trkpt lat="44.90195" lon="0.5054">
        <ele>127.863647</ele>
        <time>2013-03-04T10:49:58Z</time>
      </trkpt>
      <trkpt lat="44.90199" lon="0.50543">
        <ele>128.080811</ele>
        <time>2013-03-04T10:50:00Z</time>
      </trkpt>
      <trkpt lat="44.90203" lon="0.50545">
        <ele>128.367554</ele>
        <time>2013-03-04T10:50:03Z</time>
      </trkpt>
      <trkpt lat="44.90208" lon="0.50543">
        <ele>128.744263</ele>
        <time>2013-03-04T10:50:07Z</time>
      </trkpt>
      <trkpt lat="44.90213" lon="0.50543">
        <ele>129.08197</ele>
        <time>2013-03-04T10:50:09Z</time>
      </trkpt>
      <trkpt lat="44.9022" lon="0.50544">
        <ele>129.529907</ele>
        <time>2013-03-04T10:50:11Z</time>
      </trkpt>
      <trkpt lat="44.90226" lon="0.50547">
        <ele>129.92627</ele>
        <time>2013-03-04T10:50:13Z</time>
      </trkpt>
      <trkpt lat="44.90232" lon="0.5055">
        <ele>130.346069</ele>
        <time>2013-03-04T10:50:15Z</time>
      </trkpt>
      <trkpt lat="44.90238" lon="0.50553">
        <ele>130.771179</ele>
        <time>2013-03-04T10:50:17Z</time>
      </trkpt>
      <trkpt lat="44.90244" lon="0.50555">
        <ele>131.201416</ele>
        <time>2013-03-04T10:50:19Z</time>
      </trkpt>
      <trkpt lat="44.9025" lon="0.50553">
        <ele>131.598999</ele>
        <time>2013-03-04T10:50:21Z</time>
      </trkpt>
      <trkpt lat="44.90255" lon="0.50552">
        <ele>131.94873</ele>
        <time>2013-03-04T10:50:23Z</time>
      </trkpt>
      <trkpt lat="44.9026" lon="0.5055">
        <ele>132.221985</ele>
        <time>2013-03-04T10:50:25Z</time>
      </trkpt>
      <trkpt lat="44.90267" lon="0.50544">
        <ele>132.613403</ele>
        <time>2013-03-04T10:50:28Z</time>
      </trkpt>
      <trkpt lat="44.90271" lon="0.50539">
        <ele>132.859741</ele>
        <time>2013-03-04T10:50:30Z</time>
      </trkpt>
      <trkpt lat="44.90276" lon="0.50534">
        <ele>133.158691</ele>
        <time>2013-03-04T10:50:33Z</time>
      </trkpt>
      <trkpt lat="44.90281" lon="0.50533">
        <ele>133.462036</ele>
        <time>2013-03-04T10:50:35Z</time>
      </trkpt>
      <trkpt lat="44.90287" lon="0.50532">
        <ele>133.870117</ele>
        <time>2013-03-04T10:50:37Z</time>
      </trkpt>
      <trkpt lat="44.90294" lon="0.50531">
        <ele>134.316101</ele>
        <time>2013-03-04T10:50:39Z</time>
      </trkpt>
      <trkpt lat="44.90301" lon="0.50533">
        <ele>134.810425</ele>
        <time>2013-03-04T10:50:41Z</time>
      </trkpt>
      <trkpt lat="44.90307" lon="0.50536">
        <ele>135.265259</ele>
        <time>2013-03-04T10:50:43Z</time>
      </trkpt>
      <trkpt lat="44.90313" lon="0.50537">
        <ele>135.652954</ele>
        <time>2013-03-04T10:50:45Z</time>
      </trkpt>
      <trkpt lat="44.90318" lon="0.50538">
        <ele>135.980652</ele>
        <time>2013-03-04T10:50:47Z</time>
      </trkpt>
      <trkpt lat="44.90323" lon="0.50539">
        <ele>136.29126</ele>
        <time>2013-03-04T10:50:49Z</time>
      </trkpt>
      <trkpt lat="44.90327" lon="0.5054">
        <ele>136.597473</ele>
        <time>2013-03-04T10:50:51Z</time>
      </trkpt>
      <trkpt lat="44.90332" lon="0.50537">
        <ele>136.926025</ele>
        <time>2013-03-04T10:50:54Z</time>
      </trkpt>
      <trkpt lat="44.90333" lon="0.5053">
        <ele>136.988281</ele>
        <time>2013-03-04T10:50:56Z</time>
      </trkpt>
      <trkpt lat="44.90334" lon="0.50522">
        <ele>137.014038</ele>
        <time>2013-03-04T10:50:58Z</time>
      </trkpt>
      <trkpt lat="44.90334" lon="0.50514">
        <ele>137.037659</ele>
        <time>2013-03-04T10:51:00Z</time>
      </trkpt>
      <trkpt lat="44.90335" lon="0.50507">
        <ele>137.094238</ele>
        <time>2013-03-04T10:51:02Z</time>
      </trkpt>
      <trkpt lat="44.90336" lon="0.50501">
        <ele>137.179626</ele>
        <time>2013-03-04T10:51:04Z</time>
      </trkpt>
      <trkpt lat="44.90338" lon="0.50494">
        <ele>137.369385</ele>
        <time>2013-03-04T10:51:06Z</time>
      </trkpt>
      <trkpt lat="44.9034" lon="0.50488">
        <ele>137.631592</ele>
        <time>2013-03-04T10:51:08Z</time>
      </trkpt>
      <trkpt lat="44.90343" lon="0.50482">
        <ele>137.950989</ele>
        <time>2013-03-04T10:51:10Z</time>
      </trkpt>
      <trkpt lat="44.90345" lon="0.50476">
        <ele>138.278015</ele>
        <time>2013-03-04T10:51:12Z</time>
      </trkpt>
      <trkpt lat="44.90349" lon="0.5047">
        <ele>138.784912</ele>
        <time>2013-03-04T10:51:15Z</time>
      </trkpt>
      <trkpt lat="44.90354" lon="0.50463">
        <ele>139.401978</ele>
        <time>2013-03-04T10:51:18Z</time>
      </trkpt>
      <trkpt lat="44.90358" lon="0.50457">
        <ele>140.069214</ele>
        <time>2013-03-04T10:51:21Z</time>
      </trkpt>
      <trkpt lat="44.90363" lon="0.50452">
        <ele>140.817749</ele>
        <time>2013-03-04T10:51:24Z</time>
      </trkpt>
      <trkpt lat="44.90368" lon="0.50446">
        <ele>141.553833</ele>
        <time>2013-03-04T10:51:27Z</time>
      </trkpt>
      <trkpt lat="44.90371" lon="0.5044">
        <ele>142.268616</ele>
        <time>2013-03-04T10:51:30Z</time>
      </trkpt>
      <trkpt lat="44.90373" lon="0.50432">
        <ele>142.936951</ele>
        <time>2013-03-04T10:51:33Z</time>
      </trkpt>
      <trkpt lat="44.90376" lon="0.50426">
        <ele>143.652222</ele>
        <time>2013-03-04T10:51:36Z</time>
      </trkpt>
      <trkpt lat="44.90382" lon="0.50423">
        <ele>144.579468</ele>
        <time>2013-03-04T10:51:39Z</time>
      </trkpt>
      <trkpt lat="44.90386" lon="0.50423">
        <ele>145.24292</ele>
        <time>2013-03-04T10:51:44Z</time>
      </trkpt>
      <trkpt lat="44.90392" lon="0.50426">
        <ele>145.790466</ele>
        <time>2013-03-04T10:51:48Z</time>
      </trkpt>
      <trkpt lat="44.90397" lon="0.50426">
        <ele>146.510681</ele>
        <time>2013-03-04T10:51:52Z</time>
      </trkpt>
      <trkpt lat="44.90402" lon="0.50427">
        <ele>147.026306</ele>
        <time>2013-03-04T10:51:55Z</time>
      </trkpt>
      <trkpt lat="44.90409" lon="0.5043">
        <ele>147.654846</ele>
        <time>2013-03-04T10:51:58Z</time>
      </trkpt>
      <trkpt lat="44.90414" lon="0.50433">
        <ele>148.143982</ele>
        <time>2013-03-04T10:52:00Z</time>
      </trkpt>
      <trkpt lat="44.90418" lon="0.50435">
        <ele>148.188599</ele>
        <time>2013-03-04T10:52:02Z</time>
      </trkpt>
      <trkpt lat="44.90423" lon="0.50438">
        <ele>147.690186</ele>
        <time>2013-03-04T10:52:05Z</time>
      </trkpt>
      <trkpt lat="44.90428" lon="0.50441">
        <ele>147.248596</ele>
        <time>2013-03-04T10:52:07Z</time>
      </trkpt>
      <trkpt lat="44.90433" lon="0.50442">
        <ele>146.903809</ele>
        <time>2013-03-04T10:52:10Z</time>
      </trkpt>
      <trkpt lat="44.90439" lon="0.5044">
        <ele>146.859253</ele>
        <time>2013-03-04T10:52:13Z</time>
      </trkpt>
      <trkpt lat="44.90443" lon="0.50436">
        <ele>147.094482</ele>
        <time>2013-03-04T10:52:15Z</time>
      </trkpt>
      <trkpt lat="44.9045" lon="0.5043">
        <ele>147.513367</ele>
        <time>2013-03-04T10:52:17Z</time>
      </trkpt>
      <trkpt lat="44.90455" lon="0.50422">
        <ele>148.02832</ele>
        <time>2013-03-04T10:52:19Z</time>
      </trkpt>
      <trkpt lat="44.9046" lon="0.50414">
        <ele>148.501099</ele>
        <time>2013-03-04T10:52:21Z</time>
      </trkpt>
      <trkpt lat="44.90464" lon="0.50407">
        <ele>148.514038</ele>
        <time>2013-03-04T10:52:23Z</time>
      </trkpt>
      <trkpt lat="44.90468" lon="0.50401">
        <ele>148.533447</ele>
        <time>2013-03-04T10:52:25Z</time>
      </trkpt>
      <trkpt lat="44.90472" lon="0.50397">
        <ele>148.553406</ele>
        <time>2013-03-04T10:52:27Z</time>
      </trkpt>
      <trkpt lat="44.90477" lon="0.50393">
        <ele>148.584167</ele>
        <time>2013-03-04T10:52:29Z</time>
      </trkpt>
      <trkpt lat="44.90481" lon="0.50388">
        <ele>148.658081</ele>
        <time>2013-03-04T10:52:31Z</time>
      </trkpt>
      <trkpt lat="44.90485" lon="0.50384">
        <ele>148.752197</ele>
        <time>2013-03-04T10:52:33Z</time>
      </trkpt>
      <trkpt lat="44.90489" lon="0.50378">
        <ele>148.947144</ele>
        <time>2013-03-04T10:52:36Z</time>
      </trkpt>
      <trkpt lat="44.90492" lon="0.50372">
        <ele>149.167847</ele>
        <time>2013-03-04T10:52:38Z</time>
      </trkpt>
      <trkpt lat="44.90497" lon="0.50366">
        <ele>149.44397</ele>
        <time>2013-03-04T10:52:41Z</time>
      </trkpt>
      <trkpt lat="44.90504" lon="0.50361">
        <ele>149.513</ele>
        <time>2013-03-04T10:52:44Z</time>
      </trkpt>
      <trkpt lat="44.90508" lon="0.50356">
        <ele>149.492004</ele>
        <time>2013-03-04T10:52:46Z</time>
      </trkpt>
      <trkpt lat="44.90512" lon="0.50352">
        <ele>149.541077</ele>
        <time>2013-03-04T10:52:48Z</time>
      </trkpt>
      <trkpt lat="44.90516" lon="0.50346">
        <ele>149.64093</ele>
        <time>2013-03-04T10:52:50Z</time>
      </trkpt>
      <trkpt lat="44.9052" lon="0.50339">
        <ele>149.773682</ele>
        <time>2013-03-04T10:52:52Z</time>
      </trkpt>
      <trkpt lat="44.90523" lon="0.50334">
        <ele>149.873047</ele>
        <time>2013-03-04T10:52:53Z</time>
      </trkpt>
      <trkpt lat="44.90529" lon="0.50326">
        <ele>149.855591</ele>
        <time>2013-03-04T10:52:55Z</time>
      </trkpt>
      <trkpt lat="44.90535" lon="0.5032">
        <ele>149.82196</ele>
        <time>2013-03-04T10:52:57Z</time>
      </trkpt>
      <trkpt lat="44.90539" lon="0.50314">
        <ele>149.803467</ele>
        <time>2013-03-04T10:52:59Z</time>
      </trkpt>
      <trkpt lat="44.90544" lon="0.50307">
        <ele>149.838196</ele>
        <time>2013-03-04T10:53:01Z</time>
      </trkpt>
      <trkpt lat="44.90548" lon="0.50303">
        <ele>149.809631</ele>
        <time>2013-03-04T10:53:02Z</time>
      </trkpt>
      <trkpt lat="44.90551" lon="0.50298">
        <ele>149.789307</ele>
        <time>2013-03-04T10:53:03Z</time>
      </trkpt>
      <trkpt lat="44.90557" lon="0.50291">
        <ele>149.78772</ele>
        <time>2013-03-04T10:53:05Z</time>
      </trkpt>
      <trkpt lat="44.90563" lon="0.50284">
        <ele>149.747375</ele>
        <time>2013-03-04T10:53:07Z</time>
      </trkpt>
      <trkpt lat="44.9057" lon="0.50278">
        <ele>149.65271</ele>
        <time>2013-03-04T10:53:09Z</time>
      </trkpt>
      <trkpt lat="44.90578" lon="0.50274">
        <ele>149.40686</ele>
        <time>2013-03-04T10:53:11Z</time>
      </trkpt>
      <trkpt lat="44.90582" lon="0.50273">
        <ele>149.25116</ele>
        <time>2013-03-04T10:53:12Z</time>
      </trkpt>
      <trkpt lat="44.90592" lon="0.50269">
        <ele>148.935303</ele>
        <time>2013-03-04T10:53:14Z</time>
      </trkpt>
      <trkpt lat="44.906" lon="0.50266">
        <ele>148.715698</ele>
        <time>2013-03-04T10:53:16Z</time>
      </trkpt>
      <trkpt lat="44.90605" lon="0.50264">
        <ele>148.592163</ele>
        <time>2013-03-04T10:53:17Z</time>
      </trkpt>
      <trkpt lat="44.9061" lon="0.50262">
        <ele>148.503174</ele>
        <time>2013-03-04T10:53:18Z</time>
      </trkpt>
      <trkpt lat="44.90616" lon="0.50261">
        <ele>148.292419</ele>
        <time>2013-03-04T10:53:19Z</time>
      </trkpt>
      <trkpt lat="44.90622" lon="0.5026">
        <ele>148.071594</ele>
        <time>2013-03-04T10:53:20Z</time>
      </trkpt>
      <trkpt lat="44.90632" lon="0.50261">
        <ele>147.6521</ele>
        <time>2013-03-04T10:53:22Z</time>
      </trkpt>
      <trkpt lat="44.9064" lon="0.50261">
        <ele>147.327576</ele>
        <time>2013-03-04T10:53:24Z</time>
      </trkpt>
      <trkpt lat="44.90647" lon="0.50262">
        <ele>146.980835</ele>
        <time>2013-03-04T10:53:26Z</time>
      </trkpt>
      <trkpt lat="44.90654" lon="0.50262">
        <ele>146.711365</ele>
        <time>2013-03-04T10:53:28Z</time>
      </trkpt>
      <trkpt lat="44.90658" lon="0.50262">
        <ele>146.489136</ele>
        <time>2013-03-04T10:53:30Z</time>
      </trkpt>
      <trkpt lat="44.90666" lon="0.50263">
        <ele>146.153687</ele>
        <time>2013-03-04T10:53:33Z</time>
      </trkpt>
      <trkpt lat="44.90671" lon="0.5026">
        <ele>146.165833</ele>
        <time>2013-03-04T10:53:35Z</time>
      </trkpt>
      <trkpt lat="44.90675" lon="0.50256">
        <ele>146.278259</ele>
        <time>2013-03-04T10:53:37Z</time>
      </trkpt>
      <trkpt lat="44.90681" lon="0.50251">
        <ele>146.392456</ele>
        <time>2013-03-04T10:53:40Z</time>
      </trkpt>
      <trkpt lat="44.90688" lon="0.5025">
        <ele>146.223633</ele>
        <time>2013-03-04T10:53:42Z</time>
      </trkpt>
      <trkpt lat="44.90695" lon="0.5025">
        <ele>145.951904</ele>
        <time>2013-03-04T10:53:44Z</time>
      </trkpt>
      <trkpt lat="44.90702" lon="0.50251">
        <ele>145.70282</ele>
        <time>2013-03-04T10:53:46Z</time>
      </trkpt>
      <trkpt lat="44.90711" lon="0.50256">
        <ele>145.015137</ele>
        <time>2013-03-04T10:53:48Z</time>
      </trkpt>
      <trkpt lat="44.90715" lon="0.5026">
        <ele>144.543518</ele>
        <time>2013-03-04T10:53:49Z</time>
      </trkpt>
      <trkpt lat="44.90724" lon="0.50264">
        <ele>143.963806</ele>
        <time>2013-03-04T10:53:51Z</time>
      </trkpt>
      <trkpt lat="44.90734" lon="0.50268">
        <ele>143.314453</ele>
        <time>2013-03-04T10:53:53Z</time>
      </trkpt>
      <trkpt lat="44.90739" lon="0.50267">
        <ele>143.17572</ele>
        <time>2013-03-04T10:53:55Z</time>
      </trkpt>
      <trkpt lat="44.90745" lon="0.50266">
        <ele>143.010498</ele>
        <time>2013-03-04T10:53:57Z</time>
      </trkpt>
      <trkpt lat="44.90751" lon="0.50265">
        <ele>142.968079</ele>
        <time>2013-03-04T10:53:59Z</time>
      </trkpt>
      <trkpt lat="44.90759" lon="0.50265">
        <ele>143.330017</ele>
        <time>2013-03-04T10:54:01Z</time>
      </trkpt>
      <trkpt lat="44.90766" lon="0.50265">
        <ele>143.634338</ele>
        <time>2013-03-04T10:54:03Z</time>
      </trkpt>
      <trkpt lat="44.90772" lon="0.50265">
        <ele>143.898193</ele>
        <time>2013-03-04T10:54:05Z</time>
      </trkpt>
      <trkpt lat="44.90778" lon="0.50264">
        <ele>144.240356</ele>
        <time>2013-03-04T10:54:09Z</time>
      </trkpt>
      <trkpt lat="44.90784" lon="0.50262">
        <ele>144.673828</ele>
        <time>2013-03-04T10:54:12Z</time>
      </trkpt>
      <trkpt lat="44.90791" lon="0.50262">
        <ele>145.012268</ele>
        <time>2013-03-04T10:54:14Z</time>
      </trkpt>
      <trkpt lat="44.90797" lon="0.50263">
        <ele>145.217529</ele>
        <time>2013-03-04T10:54:16Z</time>
      </trkpt>
      <trkpt lat="44.90803" lon="0.50265">
        <ele>145.369324</ele>
        <time>2013-03-04T10:54:18Z</time>
      </trkpt>
      <trkpt lat="44.90809" lon="0.50266">
        <ele>145.509888</ele>
        <time>2013-03-04T10:54:20Z</time>
      </trkpt>
      <trkpt lat="44.90814" lon="0.50268">
        <ele>145.648438</ele>
        <time>2013-03-04T10:54:22Z</time>
      </trkpt>
      <trkpt lat="44.9082" lon="0.50267">
        <ele>145.956665</ele>
        <time>2013-03-04T10:54:25Z</time>
      </trkpt>
      <trkpt lat="44.90827" lon="0.50267">
        <ele>146.293518</ele>
        <time>2013-03-04T10:54:28Z</time>
      </trkpt>
      <trkpt lat="44.90831" lon="0.50265">
        <ele>146.600769</ele>
        <time>2013-03-04T10:54:30Z</time>
      </trkpt>
      <trkpt lat="44.90837" lon="0.50264">
        <ele>147.11969</ele>
        <time>2013-03-04T10:54:33Z</time>
      </trkpt>
      <trkpt lat="44.90842" lon="0.50262">
        <ele>147.583252</ele>
        <time>2013-03-04T10:54:35Z</time>
      </trkpt>
      <trkpt lat="44.90847" lon="0.50261">
        <ele>148.058899</ele>
        <time>2013-03-04T10:54:37Z</time>
      </trkpt>
      <trkpt lat="44.90852" lon="0.5026">
        <ele>148.503601</ele>
        <time>2013-03-04T10:54:40Z</time>
      </trkpt>
      <trkpt lat="44.90857" lon="0.50257">
        <ele>149.081299</ele>
        <time>2013-03-04T10:54:43Z</time>
      </trkpt>
      <trkpt lat="44.90862" lon="0.50257">
        <ele>149.457031</ele>
        <time>2013-03-04T10:54:46Z</time>
      </trkpt>
      <trkpt lat="44.90869" lon="0.50258">
        <ele>149.88147</ele>
        <time>2013-03-04T10:54:49Z</time>
      </trkpt>
      <trkpt lat="44.90874" lon="0.50257">
        <ele>150.26178</ele>
        <time>2013-03-04T10:54:51Z</time>
      </trkpt>
      <trkpt lat="44.90879" lon="0.50255">
        <ele>150.81189</ele>
        <time>2013-03-04T10:54:54Z</time>
      </trkpt>
      <trkpt lat="44.90884" lon="0.50254">
        <ele>151.287659</ele>
        <time>2013-03-04T10:54:57Z</time>
      </trkpt>
      <trkpt lat="44.90889" lon="0.50251">
        <ele>151.898865</ele>
        <time>2013-03-04T10:55:00Z</time>
      </trkpt>
      <trkpt lat="44.90893" lon="0.50245">
        <ele>152.720398</ele>
        <time>2013-03-04T10:55:03Z</time>
      </trkpt>
      <trkpt lat="44.90897" lon="0.5024">
        <ele>153.343323</ele>
        <time>2013-03-04T10:55:06Z</time>
      </trkpt>
      <trkpt lat="44.90902" lon="0.5024">
        <ele>153.69574</ele>
        <time>2013-03-04T10:55:11Z</time>
      </trkpt>
      <trkpt lat="44.90907" lon="0.50237">
        <ele>154.254639</ele>
        <time>2013-03-04T10:55:15Z</time>
      </trkpt>
      <trkpt lat="44.90913" lon="0.50234">
        <ele>154.849304</ele>
        <time>2013-03-04T10:55:19Z</time>
      </trkpt>
      <trkpt lat="44.90917" lon="0.50232">
        <ele>155.322144</ele>
        <time>2013-03-04T10:55:21Z</time>
      </trkpt>
      <trkpt lat="44.90921" lon="0.50228">
        <ele>155.822205</ele>
        <time>2013-03-04T10:55:24Z</time>
      </trkpt>
      <trkpt lat="44.90925" lon="0.50223">
        <ele>156.393677</ele>
        <time>2013-03-04T10:55:27Z</time>
      </trkpt>
      <trkpt lat="44.9093" lon="0.50219">
        <ele>156.862671</ele>
        <time>2013-03-04T10:55:32Z</time>
      </trkpt>
      <trkpt lat="44.90936" lon="0.50217">
        <ele>157.317932</ele>
        <time>2013-03-04T10:55:35Z</time>
      </trkpt>
      <trkpt lat="44.9094" lon="0.50213">
        <ele>157.744507</ele>
        <time>2013-03-04T10:55:38Z</time>
      </trkpt>
      <trkpt lat="44.90943" lon="0.50209">
        <ele>158.234985</ele>
        <time>2013-03-04T10:55:43Z</time>
      </trkpt>
      <trkpt lat="44.90948" lon="0.50205">
        <ele>158.697571</ele>
        <time>2013-03-04T10:55:45Z</time>
      </trkpt>
      <trkpt lat="44.90953" lon="0.50199">
        <ele>159.401733</ele>
        <time>2013-03-04T10:55:48Z</time>
      </trkpt>
      <trkpt lat="44.90956" lon="0.50195">
        <ele>159.892212</ele>
        <time>2013-03-04T10:55:50Z</time>
      </trkpt>
      <trkpt lat="44.90959" lon="0.50189">
        <ele>160.463257</ele>
        <time>2013-03-04T10:55:54Z</time>
      </trkpt>
      <trkpt lat="44.90959" lon="0.50187">
        <ele>160.562988</ele>
        <time>2013-03-04T10:55:59Z</time>
      </trkpt>
      <trkpt lat="44.90959" lon="0.50183">
        <ele>160.879272</ele>
        <time>2013-03-04T10:56:05Z</time>
      </trkpt>
      <trkpt lat="44.90956" lon="0.50177">
        <ele>161.178406</ele>
        <time>2013-03-04T10:56:09Z</time>
      </trkpt>
      <trkpt lat="44.90958" lon="0.5017">
        <ele>161.715698</ele>
        <time>2013-03-04T10:56:14Z</time>
      </trkpt>
      <trkpt lat="44.90958" lon="0.50163">
        <ele>162.020447</ele>
        <time>2013-03-04T10:56:18Z</time>
      </trkpt>
      <trkpt lat="44.90958" lon="0.50156">
        <ele>162.121338</ele>
        <time>2013-03-04T10:56:22Z</time>
      </trkpt>
      <trkpt lat="44.90958" lon="0.50149">
        <ele>162.213623</ele>
        <time>2013-03-04T10:56:24Z</time>
      </trkpt>
      <trkpt lat="44.90959" lon="0.50141">
        <ele>162.312256</ele>
        <time>2013-03-04T10:56:27Z</time>
      </trkpt>
      <trkpt lat="44.90962" lon="0.50137">
        <ele>162.459229</ele>
        <time>2013-03-04T10:56:30Z</time>
      </trkpt>
      <trkpt lat="44.90966" lon="0.50136">
        <ele>162.608337</ele>
        <time>2013-03-04T10:56:32Z</time>
      </trkpt>
      <trkpt lat="44.90973" lon="0.50137">
        <ele>162.797241</ele>
        <time>2013-03-04T10:56:34Z</time>
      </trkpt>
      <trkpt lat="44.90978" lon="0.50137">
        <ele>162.976929</ele>
        <time>2013-03-04T10:56:36Z</time>
      </trkpt>
      <trkpt lat="44.90985" lon="0.5014">
        <ele>163.17981</ele>
        <time>2013-03-04T10:56:38Z</time>
      </trkpt>
      <trkpt lat="44.9099" lon="0.50143">
        <ele>163.379578</ele>
        <time>2013-03-04T10:56:40Z</time>
      </trkpt>
      <trkpt lat="44.90997" lon="0.50147">
        <ele>163.641296</ele>
        <time>2013-03-04T10:56:42Z</time>
      </trkpt>
      <trkpt lat="44.91003" lon="0.50149">
        <ele>163.850098</ele>
        <time>2013-03-04T10:56:44Z</time>
      </trkpt>
      <trkpt lat="44.91009" lon="0.50149">
        <ele>163.983459</ele>
        <time>2013-03-04T10:56:46Z</time>
      </trkpt>
      <trkpt lat="44.91015" lon="0.50148">
        <ele>164.098145</ele>
        <time>2013-03-04T10:56:48Z</time>
      </trkpt>
      <trkpt lat="44.91021" lon="0.50147">
        <ele>164.210693</ele>
        <time>2013-03-04T10:56:50Z</time>
      </trkpt>
      <trkpt lat="44.91026" lon="0.50147">
        <ele>164.332642</ele>
        <time>2013-03-04T10:56:52Z</time>
      </trkpt>
      <trkpt lat="44.91031" lon="0.50146">
        <ele>164.407654</ele>
        <time>2013-03-04T10:56:54Z</time>
      </trkpt>
      <trkpt lat="44.91036" lon="0.50144">
        <ele>164.456482</ele>
        <time>2013-03-04T10:56:56Z</time>
      </trkpt>
      <trkpt lat="44.91041" lon="0.50143">
        <ele>164.482178</ele>
        <time>2013-03-04T10:56:58Z</time>
      </trkpt>
      <trkpt lat="44.91046" lon="0.50142">
        <ele>164.550293</ele>
        <time>2013-03-04T10:57:00Z</time>
      </trkpt>
      <trkpt lat="44.91052" lon="0.50144">
        <ele>164.732788</ele>
        <time>2013-03-04T10:57:02Z</time>
      </trkpt>
      <trkpt lat="44.91059" lon="0.50145">
        <ele>164.957703</ele>
        <time>2013-03-04T10:57:04Z</time>
      </trkpt>
      <trkpt lat="44.91069" lon="0.50148">
        <ele>165.354553</ele>
        <time>2013-03-04T10:57:06Z</time>
      </trkpt>
      <trkpt lat="44.91079" lon="0.50151">
        <ele>165.735352</ele>
        <time>2013-03-04T10:57:08Z</time>
      </trkpt>
      <trkpt lat="44.91088" lon="0.50152">
        <ele>165.897095</ele>
        <time>2013-03-04T10:57:10Z</time>
      </trkpt>
      <trkpt lat="44.91095" lon="0.50151">
        <ele>165.784668</ele>
        <time>2013-03-04T10:57:12Z</time>
      </trkpt>
      <trkpt lat="44.91102" lon="0.50149">
        <ele>165.670776</ele>
        <time>2013-03-04T10:57:14Z</time>
      </trkpt>
      <trkpt lat="44.91108" lon="0.50148">
        <ele>165.584229</ele>
        <time>2013-03-04T10:57:16Z</time>
      </trkpt>
      <trkpt lat="44.91115" lon="0.50149">
        <ele>165.584717</ele>
        <time>2013-03-04T10:57:18Z</time>
      </trkpt>
      <trkpt lat="44.91121" lon="0.50151">
        <ele>165.660339</ele>
        <time>2013-03-04T10:57:20Z</time>
      </trkpt>
      <trkpt lat="44.91128" lon="0.50152">
        <ele>165.708984</ele>
        <time>2013-03-04T10:57:22Z</time>
      </trkpt>
      <trkpt lat="44.91137" lon="0.50154">
        <ele>165.711731</ele>
        <time>2013-03-04T10:57:24Z</time>
      </trkpt>
      <trkpt lat="44.91147" lon="0.50155">
        <ele>165.710388</ele>
        <time>2013-03-04T10:57:26Z</time>
      </trkpt>
      <trkpt lat="44.91155" lon="0.50156">
        <ele>165.705322</ele>
        <time>2013-03-04T10:57:28Z</time>
      </trkpt>
      <trkpt lat="44.91172" lon="0.50164">
        <ele>165.957214</ele>
        <time>2013-03-04T10:57:30Z</time>
      </trkpt>
      <trkpt lat="44.9118" lon="0.50164">
        <ele>166.051147</ele>
        <time>2013-03-04T10:57:32Z</time>
      </trkpt>
      <trkpt lat="44.91185" lon="0.50165">
        <ele>166.14624</ele>
        <time>2013-03-04T10:57:33Z</time>
      </trkpt>
      <trkpt lat="44.91191" lon="0.50164">
        <ele>166.177795</ele>
        <time>2013-03-04T10:57:34Z</time>
      </trkpt>
      <trkpt lat="44.91195" lon="0.50164">
        <ele>166.244141</ele>
        <time>2013-03-04T10:57:35Z</time>
      </trkpt>
      <trkpt lat="44.91206" lon="0.50168">
        <ele>166.418335</ele>
        <time>2013-03-04T10:57:37Z</time>
      </trkpt>
      <trkpt lat="44.91212" lon="0.50173">
        <ele>166.329468</ele>
        <time>2013-03-04T10:57:39Z</time>
      </trkpt>
      <trkpt lat="44.91219" lon="0.50174">
        <ele>166.351562</ele>
        <time>2013-03-04T10:57:41Z</time>
      </trkpt>
      <trkpt lat="44.91224" lon="0.50177">
        <ele>166.301758</ele>
        <time>2013-03-04T10:57:42Z</time>
      </trkpt>
      <trkpt lat="44.91233" lon="0.5018">
        <ele>166.324219</ele>
        <time>2013-03-04T10:57:44Z</time>
      </trkpt>
      <trkpt lat="44.91246" lon="0.5018">
        <ele>166.489502</ele>
        <time>2013-03-04T10:57:46Z</time>
      </trkpt>
      <trkpt lat="44.91252" lon="0.50181">
        <ele>166.532471</ele>
        <time>2013-03-04T10:57:47Z</time>
      </trkpt>
      <trkpt lat="44.9126" lon="0.50179">
        <ele>166.8526</ele>
        <time>2013-03-04T10:57:49Z</time>
      </trkpt>
      <trkpt lat="44.91269" lon="0.50183">
        <ele>166.993591</ele>
        <time>2013-03-04T10:57:51Z</time>
      </trkpt>
      <trkpt lat="44.91277" lon="0.50182">
        <ele>167.282715</ele>
        <time>2013-03-04T10:57:53Z</time>
      </trkpt>
      <trkpt lat="44.91286" lon="0.50181">
        <ele>167.567627</ele>
        <time>2013-03-04T10:57:55Z</time>
      </trkpt>
      <trkpt lat="44.91295" lon="0.5018">
        <ele>167.858704</ele>
        <time>2013-03-04T10:57:57Z</time>
      </trkpt>
      <trkpt lat="44.91302" lon="0.50176">
        <ele>168.100586</ele>
        <time>2013-03-04T10:57:59Z</time>
      </trkpt>
      <trkpt lat="44.91306" lon="0.50178">
        <ele>168.203979</ele>
        <time>2013-03-04T10:58:00Z</time>
      </trkpt>
      <trkpt lat="44.91312" lon="0.50169">
        <ele>168.464478</ele>
        <time>2013-03-04T10:58:02Z</time>
      </trkpt>
      <trkpt lat="44.91316" lon="0.50161">
        <ele>168.469177</ele>
        <time>2013-03-04T10:58:04Z</time>
      </trkpt>
      <trkpt lat="44.9132" lon="0.50145">
        <ele>168.290222</ele>
        <time>2013-03-04T10:58:06Z</time>
      </trkpt>
      <trkpt lat="44.91323" lon="0.5014">
        <ele>168.30896</ele>
        <time>2013-03-04T10:58:07Z</time>
      </trkpt>
      <trkpt lat="44.9133" lon="0.50129">
        <ele>168.433655</ele>
        <time>2013-03-04T10:58:09Z</time>
      </trkpt>
      <trkpt lat="44.91335" lon="0.50126">
        <ele>168.544861</ele>
        <time>2013-03-04T10:58:10Z</time>
      </trkpt>
      <trkpt lat="44.91343" lon="0.5012">
        <ele>168.646179</ele>
        <time>2013-03-04T10:58:12Z</time>
      </trkpt>
      <trkpt lat="44.91351" lon="0.50115">
        <ele>168.697937</ele>
        <time>2013-03-04T10:58:14Z</time>
      </trkpt>
      <trkpt lat="44.91357" lon="0.5011">
        <ele>168.692017</ele>
        <time>2013-03-04T10:58:16Z</time>
      </trkpt>
      <trkpt lat="44.91364" lon="0.50106">
        <ele>168.660278</ele>
        <time>2013-03-04T10:58:18Z</time>
      </trkpt>
      <trkpt lat="44.91371" lon="0.50099">
        <ele>168.507874</ele>
        <time>2013-03-04T10:58:20Z</time>
      </trkpt>
      <trkpt lat="44.91376" lon="0.50093">
        <ele>168.347534</ele>
        <time>2013-03-04T10:58:22Z</time>
      </trkpt>
      <trkpt lat="44.91381" lon="0.50086">
        <ele>168.111938</ele>
        <time>2013-03-04T10:58:24Z</time>
      </trkpt>
      <trkpt lat="44.91385" lon="0.50077">
        <ele>167.969482</ele>
        <time>2013-03-04T10:58:26Z</time>
      </trkpt>
      <trkpt lat="44.91383" lon="0.50067">
        <ele>167.923523</ele>
        <time>2013-03-04T10:58:27Z</time>
      </trkpt>
      <trkpt lat="44.91385" lon="0.50055">
        <ele>167.867676</ele>
        <time>2013-03-04T10:58:29Z</time>
      </trkpt>
      <trkpt lat="44.91387" lon="0.5004">
        <ele>167.811768</ele>
        <time>2013-03-04T10:58:31Z</time>
      </trkpt>
      <trkpt lat="44.91387" lon="0.50032">
        <ele>167.779663</ele>
        <time>2013-03-04T10:58:32Z</time>
      </trkpt>
      <trkpt lat="44.91388" lon="0.50024">
        <ele>167.752441</ele>
        <time>2013-03-04T10:58:33Z</time>
      </trkpt>
      <trkpt lat="44.91387" lon="0.50017">
        <ele>167.713989</ele>
        <time>2013-03-04T10:58:34Z</time>
      </trkpt>
      <trkpt lat="44.91392" lon="0.49999">
        <ele>167.687134</ele>
        <time>2013-03-04T10:58:36Z</time>
      </trkpt>
      <trkpt lat="44.91393" lon="0.49991">
        <ele>167.569885</ele>
        <time>2013-03-04T10:58:37Z</time>
      </trkpt>
      <trkpt lat="44.91394" lon="0.49982">
        <ele>167.453552</ele>
        <time>2013-03-04T10:58:38Z</time>
      </trkpt>
      <trkpt lat="44.91397" lon="0.49965">
        <ele>167.237183</ele>
        <time>2013-03-04T10:58:40Z</time>
      </trkpt>
      <trkpt lat="44.91399" lon="0.49953">
        <ele>167.095093</ele>
        <time>2013-03-04T10:58:41Z</time>
      </trkpt>
      <trkpt lat="44.91398" lon="0.49943">
        <ele>166.939697</ele>
        <time>2013-03-04T10:58:42Z</time>
      </trkpt>
      <trkpt lat="44.91392" lon="0.49927">
        <ele>166.568054</ele>
        <time>2013-03-04T10:58:44Z</time>
      </trkpt>
      <trkpt lat="44.91388" lon="0.49917">
        <ele>166.317139</ele>
        <time>2013-03-04T10:58:45Z</time>
      </trkpt>
      <trkpt lat="44.91378" lon="0.49894">
        <ele>165.13385</ele>
        <time>2013-03-04T10:58:47Z</time>
      </trkpt>
      <trkpt lat="44.91375" lon="0.49886">
        <ele>164.715881</ele>
        <time>2013-03-04T10:58:48Z</time>
      </trkpt>
      <trkpt lat="44.9137" lon="0.49877">
        <ele>164.160156</ele>
        <time>2013-03-04T10:58:49Z</time>
      </trkpt>
      <trkpt lat="44.91365" lon="0.49866">
        <ele>163.526489</ele>
        <time>2013-03-04T10:58:50Z</time>
      </trkpt>
      <trkpt lat="44.91361" lon="0.49858">
        <ele>163.091003</ele>
        <time>2013-03-04T10:58:51Z</time>
      </trkpt>
      <trkpt lat="44.91355" lon="0.49845">
        <ele>162.277771</ele>
        <time>2013-03-04T10:58:53Z</time>
      </trkpt>
      <trkpt lat="44.91351" lon="0.49837">
        <ele>161.795227</ele>
        <time>2013-03-04T10:58:55Z</time>
      </trkpt>
      <trkpt lat="44.91365" lon="0.49831">
        <ele>162.060425</ele>
        <time>2013-03-04T10:59:00Z</time>
      </trkpt>
      <trkpt lat="44.91373" lon="0.4983">
        <ele>162.29071</ele>
        <time>2013-03-04T10:59:03Z</time>
      </trkpt>
      <trkpt lat="44.91378" lon="0.49828">
        <ele>162.423035</ele>
        <time>2013-03-04T10:59:05Z</time>
      </trkpt>
      <trkpt lat="44.91388" lon="0.49825">
        <ele>162.635986</ele>
        <time>2013-03-04T10:59:07Z</time>
      </trkpt>
      <trkpt lat="44.91398" lon="0.49814">
        <ele>162.46814</ele>
        <time>2013-03-04T10:59:09Z</time>
      </trkpt>
      <trkpt lat="44.91403" lon="0.49805">
        <ele>162.277222</ele>
        <time>2013-03-04T10:59:11Z</time>
      </trkpt>
      <trkpt lat="44.91409" lon="0.49796">
        <ele>162.03241</ele>
        <time>2013-03-04T10:59:13Z</time>
      </trkpt>
      <trkpt lat="44.91414" lon="0.49789">
        <ele>161.820129</ele>
        <time>2013-03-04T10:59:14Z</time>
      </trkpt>
      <trkpt lat="44.9142" lon="0.4978">
        <ele>161.274475</ele>
        <time>2013-03-04T10:59:16Z</time>
      </trkpt>
      <trkpt lat="44.91424" lon="0.49773">
        <ele>160.720886</ele>
        <time>2013-03-04T10:59:17Z</time>
      </trkpt>
      <trkpt lat="44.91428" lon="0.49767">
        <ele>160.243042</ele>
        <time>2013-03-04T10:59:18Z</time>
      </trkpt>
      <trkpt lat="44.91434" lon="0.49758">
        <ele>159.413269</ele>
        <time>2013-03-04T10:59:19Z</time>
      </trkpt>
      <trkpt lat="44.91438" lon="0.49751">
        <ele>158.736084</ele>
        <time>2013-03-04T10:59:20Z</time>
      </trkpt>
      <trkpt lat="44.91449" lon="0.49732">
        <ele>157.015198</ele>
        <time>2013-03-04T10:59:22Z</time>
      </trkpt>
      <trkpt lat="44.91455" lon="0.49723">
        <ele>156.195557</ele>
        <time>2013-03-04T10:59:23Z</time>
      </trkpt>
      <trkpt lat="44.91465" lon="0.49707">
        <ele>154.875916</ele>
        <time>2013-03-04T10:59:25Z</time>
      </trkpt>
      <trkpt lat="44.91469" lon="0.497">
        <ele>154.357239</ele>
        <time>2013-03-04T10:59:26Z</time>
      </trkpt>
      <trkpt lat="44.91475" lon="0.49691">
        <ele>153.739746</ele>
        <time>2013-03-04T10:59:27Z</time>
      </trkpt>
      <trkpt lat="44.91482" lon="0.49679">
        <ele>152.976013</ele>
        <time>2013-03-04T10:59:29Z</time>
      </trkpt>
      <trkpt lat="44.91488" lon="0.49671">
        <ele>152.463074</ele>
        <time>2013-03-04T10:59:30Z</time>
      </trkpt>
      <trkpt lat="44.91499" lon="0.49656">
        <ele>151.486328</ele>
        <time>2013-03-04T10:59:32Z</time>
      </trkpt>
      <trkpt lat="44.91505" lon="0.49644">
        <ele>150.819458</ele>
        <time>2013-03-04T10:59:34Z</time>
      </trkpt>
      <trkpt lat="44.91512" lon="0.49628">
        <ele>149.845459</ele>
        <time>2013-03-04T10:59:36Z</time>
      </trkpt>
      <trkpt lat="44.91518" lon="0.4961">
        <ele>148.736389</ele>
        <time>2013-03-04T10:59:38Z</time>
      </trkpt>
      <trkpt lat="44.91522" lon="0.49598">
        <ele>148.020874</ele>
        <time>2013-03-04T10:59:39Z</time>
      </trkpt>
      <trkpt lat="44.91525" lon="0.49588">
        <ele>147.345581</ele>
        <time>2013-03-04T10:59:40Z</time>
      </trkpt>
      <trkpt lat="44.9153" lon="0.49569">
        <ele>145.501221</ele>
        <time>2013-03-04T10:59:42Z</time>
      </trkpt>
      <trkpt lat="44.91539" lon="0.49548">
        <ele>142.984802</ele>
        <time>2013-03-04T10:59:44Z</time>
      </trkpt>
      <trkpt lat="44.91545" lon="0.49537">
        <ele>141.63501</ele>
        <time>2013-03-04T10:59:45Z</time>
      </trkpt>
      <trkpt lat="44.91551" lon="0.49528">
        <ele>140.482788</ele>
        <time>2013-03-04T10:59:46Z</time>
      </trkpt>
      <trkpt lat="44.91564" lon="0.49508">
        <ele>137.786865</ele>
        <time>2013-03-04T10:59:48Z</time>
      </trkpt>
      <trkpt lat="44.91571" lon="0.49499">
        <ele>136.580261</ele>
        <time>2013-03-04T10:59:49Z</time>
      </trkpt>
      <trkpt lat="44.91576" lon="0.49491">
        <ele>136.120056</ele>
        <time>2013-03-04T10:59:50Z</time>
      </trkpt>
      <trkpt lat="44.91583" lon="0.4948">
        <ele>135.5448</ele>
        <time>2013-03-04T10:59:51Z</time>
      </trkpt>
      <trkpt lat="44.91592" lon="0.49465">
        <ele>136.314636</ele>
        <time>2013-03-04T10:59:53Z</time>
      </trkpt>
      <trkpt lat="44.91597" lon="0.49457">
        <ele>136.719238</ele>
        <time>2013-03-04T10:59:54Z</time>
      </trkpt>
      <trkpt lat="44.91602" lon="0.49449">
        <ele>137.133423</ele>
        <time>2013-03-04T10:59:55Z</time>
      </trkpt>
      <trkpt lat="44.9161" lon="0.49437">
        <ele>137.715576</ele>
        <time>2013-03-04T10:59:57Z</time>
      </trkpt>
      <trkpt lat="44.91617" lon="0.49424">
        <ele>138.224121</ele>
        <time>2013-03-04T10:59:59Z</time>
      </trkpt>
      <trkpt lat="44.91622" lon="0.49414">
        <ele>138.501465</ele>
        <time>2013-03-04T11:00:01Z</time>
      </trkpt>
      <trkpt lat="44.91627" lon="0.49402">
        <ele>138.639526</ele>
        <time>2013-03-04T11:00:03Z</time>
      </trkpt>
      <trkpt lat="44.91632" lon="0.49391">
        <ele>138.67572</ele>
        <time>2013-03-04T11:00:05Z</time>
      </trkpt>
      <trkpt lat="44.91634" lon="0.49384">
        <ele>138.681519</ele>
        <time>2013-03-04T11:00:06Z</time>
      </trkpt>
      <trkpt lat="44.91639" lon="0.49372">
        <ele>138.676208</ele>
        <time>2013-03-04T11:00:08Z</time>
      </trkpt>
      <trkpt lat="44.91641" lon="0.49366">
        <ele>138.650452</ele>
        <time>2013-03-04T11:00:09Z</time>
      </trkpt>
      <trkpt lat="44.91645" lon="0.49354">
        <ele>138.589844</ele>
        <time>2013-03-04T11:00:11Z</time>
      </trkpt>
      <trkpt lat="44.91648" lon="0.49347">
        <ele>138.543152</ele>
        <time>2013-03-04T11:00:14Z</time>
      </trkpt>
      <trkpt lat="44.91654" lon="0.49328">
        <ele>138.383301</ele>
        <time>2013-03-04T11:00:16Z</time>
      </trkpt>
      <trkpt lat="44.91658" lon="0.49316">
        <ele>138.282104</ele>
        <time>2013-03-04T11:00:18Z</time>
      </trkpt>
      <trkpt lat="44.91662" lon="0.49307">
        <ele>138.300659</ele>
        <time>2013-03-04T11:00:20Z</time>
      </trkpt>
      <trkpt lat="44.9167" lon="0.49294">
        <ele>138.22644</ele>
        <time>2013-03-04T11:00:22Z</time>
      </trkpt>
      <trkpt lat="44.91678" lon="0.49284">
        <ele>137.9328</ele>
        <time>2013-03-04T11:00:24Z</time>
      </trkpt>
      <trkpt lat="44.91686" lon="0.49275">
        <ele>137.731201</ele>
        <time>2013-03-04T11:00:26Z</time>
      </trkpt>
      <trkpt lat="44.91691" lon="0.49271">
        <ele>137.662476</ele>
        <time>2013-03-04T11:00:27Z</time>
      </trkpt>
      <trkpt lat="44.91704" lon="0.49261">
        <ele>137.466003</ele>
        <time>2013-03-04T11:00:29Z</time>
      </trkpt>
      <trkpt lat="44.9171" lon="0.49256">
        <ele>137.374146</ele>
        <time>2013-03-04T11:00:30Z</time>
      </trkpt>
      <trkpt lat="44.91718" lon="0.4925">
        <ele>137.226013</ele>
        <time>2013-03-04T11:00:31Z</time>
      </trkpt>
      <trkpt lat="44.91724" lon="0.49245">
        <ele>136.971741</ele>
        <time>2013-03-04T11:00:32Z</time>
      </trkpt>
      <trkpt lat="44.91739" lon="0.49234">
        <ele>136.106567</ele>
        <time>2013-03-04T11:00:34Z</time>
      </trkpt>
      <trkpt lat="44.91755" lon="0.49219">
        <ele>134.334351</ele>
        <time>2013-03-04T11:00:36Z</time>
      </trkpt>
      <trkpt lat="44.91762" lon="0.49212">
        <ele>133.18396</ele>
        <time>2013-03-04T11:00:37Z</time>
      </trkpt>
      <trkpt lat="44.91768" lon="0.49205">
        <ele>132.219849</ele>
        <time>2013-03-04T11:00:38Z</time>
      </trkpt>
      <trkpt lat="44.9178" lon="0.4919">
        <ele>130.473999</ele>
        <time>2013-03-04T11:00:40Z</time>
      </trkpt>
      <trkpt lat="44.91787" lon="0.49182">
        <ele>129.653809</ele>
        <time>2013-03-04T11:00:41Z</time>
      </trkpt>
      <trkpt lat="44.91793" lon="0.49175">
        <ele>129.019836</ele>
        <time>2013-03-04T11:00:42Z</time>
      </trkpt>
      <trkpt lat="44.91807" lon="0.49155">
        <ele>127.750488</ele>
        <time>2013-03-04T11:00:44Z</time>
      </trkpt>
      <trkpt lat="44.91818" lon="0.49138">
        <ele>126.671997</ele>
        <time>2013-03-04T11:00:46Z</time>
      </trkpt>
      <trkpt lat="44.91825" lon="0.49129">
        <ele>125.962524</ele>
        <time>2013-03-04T11:00:47Z</time>
      </trkpt>
      <trkpt lat="44.91832" lon="0.49118">
        <ele>125.094421</ele>
        <time>2013-03-04T11:00:48Z</time>
      </trkpt>
      <trkpt lat="44.91845" lon="0.49098">
        <ele>124.396423</ele>
        <time>2013-03-04T11:00:50Z</time>
      </trkpt>
      <trkpt lat="44.91855" lon="0.49084">
        <ele>124.059204</ele>
        <time>2013-03-04T11:00:52Z</time>
      </trkpt>
      <trkpt lat="44.9186" lon="0.49077">
        <ele>124.030396</ele>
        <time>2013-03-04T11:00:53Z</time>
      </trkpt>
      <trkpt lat="44.91864" lon="0.49072">
        <ele>124.006165</ele>
        <time>2013-03-04T11:00:54Z</time>
      </trkpt>
      <trkpt lat="44.91869" lon="0.49066">
        <ele>123.970459</ele>
        <time>2013-03-04T11:00:55Z</time>
      </trkpt>
      <trkpt lat="44.91876" lon="0.49056">
        <ele>123.897095</ele>
        <time>2013-03-04T11:00:56Z</time>
      </trkpt>
      <trkpt lat="44.91882" lon="0.49048">
        <ele>123.822815</ele>
        <time>2013-03-04T11:00:58Z</time>
      </trkpt>
      <trkpt lat="44.9189" lon="0.49038">
        <ele>123.70697</ele>
        <time>2013-03-04T11:01:00Z</time>
      </trkpt>
      <trkpt lat="44.91894" lon="0.49032">
        <ele>123.634338</ele>
        <time>2013-03-04T11:01:02Z</time>
      </trkpt>
      <trkpt lat="44.919" lon="0.49025">
        <ele>123.514282</ele>
        <time>2013-03-04T11:01:04Z</time>
      </trkpt>
      <trkpt lat="44.91905" lon="0.49017">
        <ele>123.368408</ele>
        <time>2013-03-04T11:01:06Z</time>
      </trkpt>
      <trkpt lat="44.9191" lon="0.4901">
        <ele>123.226929</ele>
        <time>2013-03-04T11:01:08Z</time>
      </trkpt>
      <trkpt lat="44.91914" lon="0.49003">
        <ele>123.053467</ele>
        <time>2013-03-04T11:01:09Z</time>
      </trkpt>
      <trkpt lat="44.91919" lon="0.48996">
        <ele>123.308289</ele>
        <time>2013-03-04T11:01:11Z</time>
      </trkpt>
      <trkpt lat="44.91924" lon="0.48987">
        <ele>124.007141</ele>
        <time>2013-03-04T11:01:13Z</time>
      </trkpt>
      <trkpt lat="44.9193" lon="0.48978">
        <ele>124.697205</ele>
        <time>2013-03-04T11:01:15Z</time>
      </trkpt>
      <trkpt lat="44.91935" lon="0.48969">
        <ele>125.330566</ele>
        <time>2013-03-04T11:01:17Z</time>
      </trkpt>
      <trkpt lat="44.91941" lon="0.48961">
        <ele>125.926392</ele>
        <time>2013-03-04T11:01:19Z</time>
      </trkpt>
      <trkpt lat="44.91945" lon="0.48953">
        <ele>126.40686</ele>
        <time>2013-03-04T11:01:21Z</time>
      </trkpt>
      <trkpt lat="44.9195" lon="0.48946">
        <ele>126.859253</ele>
        <time>2013-03-04T11:01:23Z</time>
      </trkpt>
      <trkpt lat="44.91955" lon="0.48938">
        <ele>127.347351</ele>
        <time>2013-03-04T11:01:25Z</time>
      </trkpt>
      <trkpt lat="44.91961" lon="0.4893">
        <ele>127.822632</ele>
        <time>2013-03-04T11:01:27Z</time>
      </trkpt>
      <trkpt lat="44.91967" lon="0.48922">
        <ele>128.233521</ele>
        <time>2013-03-04T11:01:29Z</time>
      </trkpt>
      <trkpt lat="44.91972" lon="0.48913">
        <ele>128.722046</ele>
        <time>2013-03-04T11:01:31Z</time>
      </trkpt>
      <trkpt lat="44.91979" lon="0.48904">
        <ele>129.374084</ele>
        <time>2013-03-04T11:01:33Z</time>
      </trkpt>
      <trkpt lat="44.91983" lon="0.48899">
        <ele>129.712341</ele>
        <time>2013-03-04T11:01:34Z</time>
      </trkpt>
      <trkpt lat="44.91989" lon="0.4889">
        <ele>130.236572</ele>
        <time>2013-03-04T11:01:36Z</time>
      </trkpt>
      <trkpt lat="44.91995" lon="0.48882">
        <ele>130.670837</ele>
        <time>2013-03-04T11:01:38Z</time>
      </trkpt>
      <trkpt lat="44.92001" lon="0.48874">
        <ele>131.025818</ele>
        <time>2013-03-04T11:01:40Z</time>
      </trkpt>
      <trkpt lat="44.92007" lon="0.48865">
        <ele>131.21814</ele>
        <time>2013-03-04T11:01:42Z</time>
      </trkpt>
      <trkpt lat="44.92013" lon="0.48857">
        <ele>131.340759</ele>
        <time>2013-03-04T11:01:44Z</time>
      </trkpt>
      <trkpt lat="44.92021" lon="0.48847">
        <ele>131.409668</ele>
        <time>2013-03-04T11:01:46Z</time>
      </trkpt>
      <trkpt lat="44.92025" lon="0.48841">
        <ele>131.410767</ele>
        <time>2013-03-04T11:01:47Z</time>
      </trkpt>
      <trkpt lat="44.92028" lon="0.48837">
        <ele>131.392273</ele>
        <time>2013-03-04T11:01:48Z</time>
      </trkpt>
      <trkpt lat="44.92031" lon="0.48832">
        <ele>131.366455</ele>
        <time>2013-03-04T11:01:49Z</time>
      </trkpt>
      <trkpt lat="44.92035" lon="0.48827">
        <ele>131.376221</ele>
        <time>2013-03-04T11:01:51Z</time>
      </trkpt>
      <trkpt lat="44.9204" lon="0.48821">
        <ele>131.394165</ele>
        <time>2013-03-04T11:01:52Z</time>
      </trkpt>
      <trkpt lat="44.92046" lon="0.48811">
        <ele>131.431335</ele>
        <time>2013-03-04T11:01:54Z</time>
      </trkpt>
      <trkpt lat="44.92051" lon="0.48803">
        <ele>131.469177</ele>
        <time>2013-03-04T11:01:56Z</time>
      </trkpt>
      <trkpt lat="44.92055" lon="0.48794">
        <ele>131.500977</ele>
        <time>2013-03-04T11:01:57Z</time>
      </trkpt>
      <trkpt lat="44.92058" lon="0.48785">
        <ele>131.52478</ele>
        <time>2013-03-04T11:01:59Z</time>
      </trkpt>
      <trkpt lat="44.9206" lon="0.48779">
        <ele>131.541504</ele>
        <time>2013-03-04T11:02:00Z</time>
      </trkpt>
      <trkpt lat="44.92062" lon="0.48772">
        <ele>131.554504</ele>
        <time>2013-03-04T11:02:01Z</time>
      </trkpt>
      <trkpt lat="44.92065" lon="0.4876">
        <ele>131.586304</ele>
        <time>2013-03-04T11:02:03Z</time>
      </trkpt>
      <trkpt lat="44.92068" lon="0.4875">
        <ele>131.613953</ele>
        <time>2013-03-04T11:02:05Z</time>
      </trkpt>
      <trkpt lat="44.9207" lon="0.48741">
        <ele>131.469543</ele>
        <time>2013-03-04T11:02:07Z</time>
      </trkpt>
      <trkpt lat="44.92072" lon="0.48733">
        <ele>131.336121</ele>
        <time>2013-03-04T11:02:09Z</time>
      </trkpt>
      <trkpt lat="44.92076" lon="0.48722">
        <ele>131.158569</ele>
        <time>2013-03-04T11:02:11Z</time>
      </trkpt>
      <trkpt lat="44.9208" lon="0.48711">
        <ele>130.993896</ele>
        <time>2013-03-04T11:02:13Z</time>
      </trkpt>
      <trkpt lat="44.92085" lon="0.487">
        <ele>130.719788</ele>
        <time>2013-03-04T11:02:15Z</time>
      </trkpt>
      <trkpt lat="44.92089" lon="0.4869">
        <ele>130.234741</ele>
        <time>2013-03-04T11:02:17Z</time>
      </trkpt>
      <trkpt lat="44.92094" lon="0.48681">
        <ele>129.755249</ele>
        <time>2013-03-04T11:02:19Z</time>
      </trkpt>
      <trkpt lat="44.92098" lon="0.48671">
        <ele>129.258118</ele>
        <time>2013-03-04T11:02:21Z</time>
      </trkpt>
      <trkpt lat="44.92101" lon="0.48662">
        <ele>129.086792</ele>
        <time>2013-03-04T11:02:23Z</time>
      </trkpt>
      <trkpt lat="44.92103" lon="0.48653">
        <ele>129.21814</ele>
        <time>2013-03-04T11:02:25Z</time>
      </trkpt>
      <trkpt lat="44.92105" lon="0.48646">
        <ele>129.343811</ele>
        <time>2013-03-04T11:02:26Z</time>
      </trkpt>
      <trkpt lat="44.92107" lon="0.48628">
        <ele>129.655273</ele>
        <time>2013-03-04T11:02:28Z</time>
      </trkpt>
      <trkpt lat="44.92108" lon="0.48621">
        <ele>129.77179</ele>
        <time>2013-03-04T11:02:29Z</time>
      </trkpt>
      <trkpt lat="44.9211" lon="0.48604">
        <ele>130.000732</ele>
        <time>2013-03-04T11:02:31Z</time>
      </trkpt>
      <trkpt lat="44.92111" lon="0.48594">
        <ele>130.109131</ele>
        <time>2013-03-04T11:02:32Z</time>
      </trkpt>
      <trkpt lat="44.92112" lon="0.48584">
        <ele>130.191833</ele>
        <time>2013-03-04T11:02:33Z</time>
      </trkpt>
      <trkpt lat="44.92114" lon="0.48566">
        <ele>130.284302</ele>
        <time>2013-03-04T11:02:35Z</time>
      </trkpt>
      <trkpt lat="44.92116" lon="0.48556">
        <ele>130.29718</ele>
        <time>2013-03-04T11:02:36Z</time>
      </trkpt>
      <trkpt lat="44.92118" lon="0.48537">
        <ele>130.257019</ele>
        <time>2013-03-04T11:02:38Z</time>
      </trkpt>
      <trkpt lat="44.9212" lon="0.48526">
        <ele>130.188965</ele>
        <time>2013-03-04T11:02:39Z</time>
      </trkpt>
      <trkpt lat="44.92121" lon="0.48516">
        <ele>130.106506</ele>
        <time>2013-03-04T11:02:40Z</time>
      </trkpt>
      <trkpt lat="44.92123" lon="0.48497">
        <ele>129.762451</ele>
        <time>2013-03-04T11:02:42Z</time>
      </trkpt>
      <trkpt lat="44.92125" lon="0.48487">
        <ele>129.32135</ele>
        <time>2013-03-04T11:02:43Z</time>
      </trkpt>
      <trkpt lat="44.92126" lon="0.48478">
        <ele>128.941162</ele>
        <time>2013-03-04T11:02:44Z</time>
      </trkpt>
      <trkpt lat="44.92128" lon="0.48462">
        <ele>128.318298</ele>
        <time>2013-03-04T11:02:46Z</time>
      </trkpt>
      <trkpt lat="44.9213" lon="0.48452">
        <ele>127.929626</ele>
        <time>2013-03-04T11:02:48Z</time>
      </trkpt>
      <trkpt lat="44.92131" lon="0.48441">
        <ele>127.571594</ele>
        <time>2013-03-04T11:02:50Z</time>
      </trkpt>
      <trkpt lat="44.92133" lon="0.48432">
        <ele>127.175293</ele>
        <time>2013-03-04T11:02:52Z</time>
      </trkpt>
      <trkpt lat="44.92135" lon="0.48425">
        <ele>126.812622</ele>
        <time>2013-03-04T11:02:53Z</time>
      </trkpt>
      <trkpt lat="44.92141" lon="0.48408">
        <ele>126.181641</ele>
        <time>2013-03-04T11:02:55Z</time>
      </trkpt>
      <trkpt lat="44.92145" lon="0.48404">
        <ele>125.897522</ele>
        <time>2013-03-04T11:02:56Z</time>
      </trkpt>
      <trkpt lat="44.92149" lon="0.48394">
        <ele>125.668823</ele>
        <time>2013-03-04T11:02:57Z</time>
      </trkpt>
      <trkpt lat="44.92152" lon="0.48387">
        <ele>125.474915</ele>
        <time>2013-03-04T11:02:58Z</time>
      </trkpt>
      <trkpt lat="44.92159" lon="0.48372">
        <ele>125.280945</ele>
        <time>2013-03-04T11:03:00Z</time>
      </trkpt>
      <trkpt lat="44.92163" lon="0.48358">
        <ele>125.36145</ele>
        <time>2013-03-04T11:03:02Z</time>
      </trkpt>
      <trkpt lat="44.92168" lon="0.48353">
        <ele>125.113342</ele>
        <time>2013-03-04T11:03:03Z</time>
      </trkpt>
      <trkpt lat="44.92169" lon="0.48345">
        <ele>125.330322</ele>
        <time>2013-03-04T11:03:04Z</time>
      </trkpt>
      <trkpt lat="44.92174" lon="0.48327">
        <ele>124.956787</ele>
        <time>2013-03-04T11:03:06Z</time>
      </trkpt>
      <trkpt lat="44.92175" lon="0.48321">
        <ele>124.587646</ele>
        <time>2013-03-04T11:03:07Z</time>
      </trkpt>
      <trkpt lat="44.92183" lon="0.48307">
        <ele>123.473877</ele>
        <time>2013-03-04T11:03:09Z</time>
      </trkpt>
      <trkpt lat="44.92189" lon="0.48294">
        <ele>122.68988</ele>
        <time>2013-03-04T11:03:11Z</time>
      </trkpt>
      <trkpt lat="44.92192" lon="0.48288">
        <ele>122.339111</ele>
        <time>2013-03-04T11:03:12Z</time>
      </trkpt>
      <trkpt lat="44.92206" lon="0.48276">
        <ele>121.13562</ele>
        <time>2013-03-04T11:03:14Z</time>
      </trkpt>
      <trkpt lat="44.9222" lon="0.48265">
        <ele>120.281616</ele>
        <time>2013-03-04T11:03:16Z</time>
      </trkpt>
      <trkpt lat="44.92227" lon="0.48263">
        <ele>119.918884</ele>
        <time>2013-03-04T11:03:17Z</time>
      </trkpt>
      <trkpt lat="44.92241" lon="0.48271">
        <ele>118.813721</ele>
        <time>2013-03-04T11:03:19Z</time>
      </trkpt>
      <trkpt lat="44.9225" lon="0.48277">
        <ele>118.001221</ele>
        <time>2013-03-04T11:03:20Z</time>
      </trkpt>
      <trkpt lat="44.92264" lon="0.48284">
        <ele>117.253723</ele>
        <time>2013-03-04T11:03:22Z</time>
      </trkpt>
      <trkpt lat="44.9227" lon="0.48287">
        <ele>116.879883</ele>
        <time>2013-03-04T11:03:23Z</time>
      </trkpt>
      <trkpt lat="44.92283" lon="0.48294">
        <ele>115.976562</ele>
        <time>2013-03-04T11:03:25Z</time>
      </trkpt>
      <trkpt lat="44.92298" lon="0.48293">
        <ele>115.456055</ele>
        <time>2013-03-04T11:03:27Z</time>
      </trkpt>
      <trkpt lat="44.92308" lon="0.48295">
        <ele>114.817749</ele>
        <time>2013-03-04T11:03:29Z</time>
      </trkpt>
      <trkpt lat="44.92316" lon="0.48303">
        <ele>113.957642</ele>
        <time>2013-03-04T11:03:30Z</time>
      </trkpt>
      <trkpt lat="44.92322" lon="0.48307">
        <ele>113.43927</ele>
        <time>2013-03-04T11:03:31Z</time>
      </trkpt>
      <trkpt lat="44.92328" lon="0.4831">
        <ele>112.961609</ele>
        <time>2013-03-04T11:03:32Z</time>
      </trkpt>
      <trkpt lat="44.92336" lon="0.48314">
        <ele>112.102234</ele>
        <time>2013-03-04T11:03:34Z</time>
      </trkpt>
      <trkpt lat="44.92344" lon="0.48319">
        <ele>111.073608</ele>
        <time>2013-03-04T11:03:36Z</time>
      </trkpt>
      <trkpt lat="44.92356" lon="0.48323">
        <ele>109.796509</ele>
        <time>2013-03-04T11:03:38Z</time>
      </trkpt>
      <trkpt lat="44.92362" lon="0.48324">
        <ele>109.240784</ele>
        <time>2013-03-04T11:03:39Z</time>
      </trkpt>
      <trkpt lat="44.92374" lon="0.48321">
        <ele>108.392761</ele>
        <time>2013-03-04T11:03:40Z</time>
      </trkpt>
      <trkpt lat="44.92381" lon="0.48317">
        <ele>107.960083</ele>
        <time>2013-03-04T11:03:41Z</time>
      </trkpt>
      <trkpt lat="44.92388" lon="0.48313">
        <ele>107.560242</ele>
        <time>2013-03-04T11:03:42Z</time>
      </trkpt>
      <trkpt lat="44.92407" lon="0.48305">
        <ele>106.261536</ele>
        <time>2013-03-04T11:03:44Z</time>
      </trkpt>
      <trkpt lat="44.92419" lon="0.48302">
        <ele>105.434082</ele>
        <time>2013-03-04T11:03:45Z</time>
      </trkpt>
      <trkpt lat="44.92432" lon="0.48304">
        <ele>105.062378</ele>
        <time>2013-03-04T11:03:46Z</time>
      </trkpt>
      <trkpt lat="44.9244" lon="0.48306">
        <ele>104.860901</ele>
        <time>2013-03-04T11:03:47Z</time>
      </trkpt>
      <trkpt lat="44.92446" lon="0.48306">
        <ele>104.737732</ele>
        <time>2013-03-04T11:03:48Z</time>
      </trkpt>
      <trkpt lat="44.92454" lon="0.48307">
        <ele>104.596741</ele>
        <time>2013-03-04T11:03:49Z</time>
      </trkpt>
      <trkpt lat="44.92464" lon="0.48299">
        <ele>104.197632</ele>
        <time>2013-03-04T11:03:51Z</time>
      </trkpt>
      <trkpt lat="44.92479" lon="0.48299">
        <ele>103.738159</ele>
        <time>2013-03-04T11:03:53Z</time>
      </trkpt>
      <trkpt lat="44.92484" lon="0.48289">
        <ele>103.00177</ele>
        <time>2013-03-04T11:03:54Z</time>
      </trkpt>
      <trkpt lat="44.92487" lon="0.48284">
        <ele>102.550903</ele>
        <time>2013-03-04T11:03:55Z</time>
      </trkpt>
      <trkpt lat="44.92494" lon="0.48269">
        <ele>101.065613</ele>
        <time>2013-03-04T11:03:57Z</time>
      </trkpt>
      <trkpt lat="44.92497" lon="0.48263">
        <ele>100.331299</ele>
        <time>2013-03-04T11:03:58Z</time>
      </trkpt>
      <trkpt lat="44.92502" lon="0.48255">
        <ele>99.531738</ele>
        <time>2013-03-04T11:03:59Z</time>
      </trkpt>
      <trkpt lat="44.92506" lon="0.48247">
        <ele>99.266541</ele>
        <time>2013-03-04T11:04:00Z</time>
      </trkpt>
      <trkpt lat="44.92514" lon="0.48236">
        <ele>99.087646</ele>
        <time>2013-03-04T11:04:02Z</time>
      </trkpt>
      <trkpt lat="44.92522" lon="0.48228">
        <ele>98.959351</ele>
        <time>2013-03-04T11:04:04Z</time>
      </trkpt>
      <trkpt lat="44.92531" lon="0.48225">
        <ele>99.049438</ele>
        <time>2013-03-04T11:04:06Z</time>
      </trkpt>
      <trkpt lat="44.92539" lon="0.48224">
        <ele>99.23584</ele>
        <time>2013-03-04T11:04:07Z</time>
      </trkpt>
      <trkpt lat="44.92545" lon="0.48223">
        <ele>99.358765</ele>
        <time>2013-03-04T11:04:08Z</time>
      </trkpt>
      <trkpt lat="44.92562" lon="0.48222">
        <ele>99.68042</ele>
        <time>2013-03-04T11:04:10Z</time>
      </trkpt>
      <trkpt lat="44.92567" lon="0.48221">
        <ele>99.786255</ele>
        <time>2013-03-04T11:04:11Z</time>
      </trkpt>
      <trkpt lat="44.92578" lon="0.48221">
        <ele>99.985657</ele>
        <time>2013-03-04T11:04:13Z</time>
      </trkpt>
      <trkpt lat="44.92585" lon="0.4822">
        <ele>99.907043</ele>
        <time>2013-03-04T11:04:14Z</time>
      </trkpt>
      <trkpt lat="44.92593" lon="0.4822">
        <ele>99.228333</ele>
        <time>2013-03-04T11:04:15Z</time>
      </trkpt>
      <trkpt lat="44.926" lon="0.48218">
        <ele>98.552612</ele>
        <time>2013-03-04T11:04:16Z</time>
      </trkpt>
      <trkpt lat="44.92614" lon="0.48215">
        <ele>97.093445</ele>
        <time>2013-03-04T11:04:18Z</time>
      </trkpt>
      <trkpt lat="44.92623" lon="0.48213">
        <ele>96.10199</ele>
        <time>2013-03-04T11:04:19Z</time>
      </trkpt>
      <trkpt lat="44.92638" lon="0.4821">
        <ele>94.440491</ele>
        <time>2013-03-04T11:04:21Z</time>
      </trkpt>
      <trkpt lat="44.92648" lon="0.48208">
        <ele>93.336609</ele>
        <time>2013-03-04T11:04:23Z</time>
      </trkpt>
      <trkpt lat="44.9266" lon="0.48206">
        <ele>92.139282</ele>
        <time>2013-03-04T11:04:25Z</time>
      </trkpt>
      <trkpt lat="44.92668" lon="0.48204">
        <ele>91.174316</ele>
        <time>2013-03-04T11:04:27Z</time>
      </trkpt>
      <trkpt lat="44.92673" lon="0.48205">
        <ele>90.47876</ele>
        <time>2013-03-04T11:04:28Z</time>
      </trkpt>
      <trkpt lat="44.92684" lon="0.4821">
        <ele>89.462769</ele>
        <time>2013-03-04T11:04:30Z</time>
      </trkpt>
      <trkpt lat="44.92695" lon="0.48218">
        <ele>88.648682</ele>
        <time>2013-03-04T11:04:32Z</time>
      </trkpt>
      <trkpt lat="44.92706" lon="0.48227">
        <ele>87.751404</ele>
        <time>2013-03-04T11:04:34Z</time>
      </trkpt>
      <trkpt lat="44.9271" lon="0.48232">
        <ele>87.404297</ele>
        <time>2013-03-04T11:04:35Z</time>
      </trkpt>
      <trkpt lat="44.92716" lon="0.48239">
        <ele>86.987732</ele>
        <time>2013-03-04T11:04:37Z</time>
      </trkpt>
      <trkpt lat="44.9273" lon="0.48257">
        <ele>85.413208</ele>
        <time>2013-03-04T11:04:39Z</time>
      </trkpt>
      <trkpt lat="44.92739" lon="0.48271">
        <ele>83.945129</ele>
        <time>2013-03-04T11:04:41Z</time>
      </trkpt>
      <trkpt lat="44.92744" lon="0.48277">
        <ele>83.286743</ele>
        <time>2013-03-04T11:04:42Z</time>
      </trkpt>
      <trkpt lat="44.92754" lon="0.48291">
        <ele>82.383484</ele>
        <time>2013-03-04T11:04:44Z</time>
      </trkpt>
      <trkpt lat="44.92758" lon="0.48297">
        <ele>82.492432</ele>
        <time>2013-03-04T11:04:45Z</time>
      </trkpt>
      <trkpt lat="44.9277" lon="0.48315">
        <ele>82.716309</ele>
        <time>2013-03-04T11:04:47Z</time>
      </trkpt>
      <trkpt lat="44.92777" lon="0.48324">
        <ele>82.75177</ele>
        <time>2013-03-04T11:04:48Z</time>
      </trkpt>
      <trkpt lat="44.92782" lon="0.48329">
        <ele>82.739685</ele>
        <time>2013-03-04T11:04:50Z</time>
      </trkpt>
      <trkpt lat="44.92788" lon="0.48335">
        <ele>82.669556</ele>
        <time>2013-03-04T11:04:53Z</time>
      </trkpt>
      <trkpt lat="44.92792" lon="0.4834">
        <ele>82.569336</ele>
        <time>2013-03-04T11:04:54Z</time>
      </trkpt>
      <trkpt lat="44.92802" lon="0.4835">
        <ele>82.336304</ele>
        <time>2013-03-04T11:04:56Z</time>
      </trkpt>
      <trkpt lat="44.92809" lon="0.48357">
        <ele>82.174866</ele>
        <time>2013-03-04T11:04:57Z</time>
      </trkpt>
      <trkpt lat="44.92818" lon="0.48364">
        <ele>81.90918</ele>
        <time>2013-03-04T11:05:01Z</time>
      </trkpt>
      <trkpt lat="44.92821" lon="0.48375">
        <ele>81.939819</ele>
        <time>2013-03-04T11:05:02Z</time>
      </trkpt>
      <trkpt lat="44.92823" lon="0.48386">
        <ele>82.004883</ele>
        <time>2013-03-04T11:05:04Z</time>
      </trkpt>
      <trkpt lat="44.92824" lon="0.48392">
        <ele>82.042847</ele>
        <time>2013-03-04T11:05:05Z</time>
      </trkpt>
      <trkpt lat="44.92826" lon="0.48405">
        <ele>82.117249</ele>
        <time>2013-03-04T11:05:07Z</time>
      </trkpt>
      <trkpt lat="44.92829" lon="0.48422">
        <ele>82.308105</ele>
        <time>2013-03-04T11:05:09Z</time>
      </trkpt>
      <trkpt lat="44.92831" lon="0.48434">
        <ele>82.526001</ele>
        <time>2013-03-04T11:05:10Z</time>
      </trkpt>
      <trkpt lat="44.92832" lon="0.48441">
        <ele>82.641418</ele>
        <time>2013-03-04T11:05:11Z</time>
      </trkpt>
      <trkpt lat="44.92834" lon="0.48452">
        <ele>82.990417</ele>
        <time>2013-03-04T11:05:13Z</time>
      </trkpt>
      <trkpt lat="44.92837" lon="0.48468">
        <ele>83.800232</ele>
        <time>2013-03-04T11:05:15Z</time>
      </trkpt>
      <trkpt lat="44.92839" lon="0.48479">
        <ele>84.261719</ele>
        <time>2013-03-04T11:05:17Z</time>
      </trkpt>
      <trkpt lat="44.92841" lon="0.48489">
        <ele>84.686401</ele>
        <time>2013-03-04T11:05:19Z</time>
      </trkpt>
      <trkpt lat="44.92843" lon="0.48495">
        <ele>84.915161</ele>
        <time>2013-03-04T11:05:20Z</time>
      </trkpt>
      <trkpt lat="44.92845" lon="0.48509">
        <ele>85.46991</ele>
        <time>2013-03-04T11:05:22Z</time>
      </trkpt>
      <trkpt lat="44.92846" lon="0.48516">
        <ele>85.729431</ele>
        <time>2013-03-04T11:05:23Z</time>
      </trkpt>
      <trkpt lat="44.92849" lon="0.48532">
        <ele>86.288391</ele>
        <time>2013-03-04T11:05:25Z</time>
      </trkpt>
      <trkpt lat="44.92852" lon="0.48542">
        <ele>86.600464</ele>
        <time>2013-03-04T11:05:27Z</time>
      </trkpt>
      <trkpt lat="44.92854" lon="0.48552">
        <ele>86.847412</ele>
        <time>2013-03-04T11:05:29Z</time>
      </trkpt>
      <trkpt lat="44.92857" lon="0.48566">
        <ele>87.118286</ele>
        <time>2013-03-04T11:05:31Z</time>
      </trkpt>
      <trkpt lat="44.92861" lon="0.48587">
        <ele>87.330627</ele>
        <time>2013-03-04T11:05:33Z</time>
      </trkpt>
      <trkpt lat="44.92863" lon="0.48595">
        <ele>87.343201</ele>
        <time>2013-03-04T11:05:34Z</time>
      </trkpt>
      <trkpt lat="44.92864" lon="0.48602">
        <ele>87.345093</ele>
        <time>2013-03-04T11:05:35Z</time>
      </trkpt>
      <trkpt lat="44.92867" lon="0.48613">
        <ele>87.32782</ele>
        <time>2013-03-04T11:05:37Z</time>
      </trkpt>
      <trkpt lat="44.92871" lon="0.48627">
        <ele>87.268311</ele>
        <time>2013-03-04T11:05:40Z</time>
      </trkpt>
      <trkpt lat="44.92874" lon="0.48636">
        <ele>87.198303</ele>
        <time>2013-03-04T11:05:43Z</time>
      </trkpt>
      <trkpt lat="44.92876" lon="0.48644">
        <ele>87.115906</ele>
        <time>2013-03-04T11:05:46Z</time>
      </trkpt>
      <trkpt lat="44.9288" lon="0.48653">
        <ele>86.998352</ele>
        <time>2013-03-04T11:05:48Z</time>
      </trkpt>
      <trkpt lat="44.92882" lon="0.48659">
        <ele>86.897522</ele>
        <time>2013-03-04T11:05:51Z</time>
      </trkpt>
      <trkpt lat="44.92886" lon="0.48669">
        <ele>86.862305</ele>
        <time>2013-03-04T11:05:53Z</time>
      </trkpt>
      <trkpt lat="44.92888" lon="0.48675">
        <ele>87.164856</ele>
        <time>2013-03-04T11:05:54Z</time>
      </trkpt>
      <trkpt lat="44.92891" lon="0.48683">
        <ele>87.480286</ele>
        <time>2013-03-04T11:05:56Z</time>
      </trkpt>
      <trkpt lat="44.92894" lon="0.48694">
        <ele>87.955688</ele>
        <time>2013-03-04T11:05:58Z</time>
      </trkpt>
      <trkpt lat="44.92896" lon="0.48706">
        <ele>88.395203</ele>
        <time>2013-03-04T11:06:00Z</time>
      </trkpt>
      <trkpt lat="44.92898" lon="0.48717">
        <ele>88.749268</ele>
        <time>2013-03-04T11:06:02Z</time>
      </trkpt>
      <trkpt lat="44.929" lon="0.48727">
        <ele>89.021973</ele>
        <time>2013-03-04T11:06:04Z</time>
      </trkpt>
      <trkpt lat="44.92901" lon="0.48735">
        <ele>89.241333</ele>
        <time>2013-03-04T11:06:06Z</time>
      </trkpt>
      <trkpt lat="44.92902" lon="0.48743">
        <ele>89.487488</ele>
        <time>2013-03-04T11:06:08Z</time>
      </trkpt>
      <trkpt lat="44.92903" lon="0.48753">
        <ele>89.789795</ele>
        <time>2013-03-04T11:06:10Z</time>
      </trkpt>
      <trkpt lat="44.92904" lon="0.48767">
        <ele>90.352356</ele>
        <time>2013-03-04T11:06:12Z</time>
      </trkpt>
      <trkpt lat="44.92904" lon="0.48777">
        <ele>90.814941</ele>
        <time>2013-03-04T11:06:14Z</time>
      </trkpt>
      <trkpt lat="44.92904" lon="0.48789">
        <ele>91.329407</ele>
        <time>2013-03-04T11:06:16Z</time>
      </trkpt>
      <trkpt lat="44.92905" lon="0.48796">
        <ele>91.670898</ele>
        <time>2013-03-04T11:06:18Z</time>
      </trkpt>
      <trkpt lat="44.92905" lon="0.4883">
        <ele>93.280273</ele>
        <time>2013-03-04T11:06:28Z</time>
      </trkpt>
      <trkpt lat="44.92906" lon="0.48833">
        <ele>93.294495</ele>
        <time>2013-03-04T11:06:33Z</time>
      </trkpt>
      <trkpt lat="44.92906" lon="0.4884">
        <ele>93.282654</ele>
        <time>2013-03-04T11:06:36Z</time>
      </trkpt>
      <trkpt lat="44.92934" lon="0.48853">
        <ele>91.166016</ele>
        <time>2013-03-04T11:06:38Z</time>
      </trkpt>
      <trkpt lat="44.92939" lon="0.48855">
        <ele>90.92688</ele>
        <time>2013-03-04T11:06:40Z</time>
      </trkpt>
      <trkpt lat="44.92944" lon="0.48853">
        <ele>90.641907</ele>
        <time>2013-03-04T11:06:42Z</time>
      </trkpt>
      <trkpt lat="44.92948" lon="0.48849">
        <ele>90.298462</ele>
        <time>2013-03-04T11:06:44Z</time>
      </trkpt>
      <trkpt lat="44.92953" lon="0.48846">
        <ele>89.934448</ele>
        <time>2013-03-04T11:06:46Z</time>
      </trkpt>
      <trkpt lat="44.92958" lon="0.48844">
        <ele>89.501282</ele>
        <time>2013-03-04T11:06:48Z</time>
      </trkpt>
      <trkpt lat="44.92964" lon="0.48841">
        <ele>89.005066</ele>
        <time>2013-03-04T11:06:50Z</time>
      </trkpt>
      <trkpt lat="44.9297" lon="0.48839">
        <ele>88.476562</ele>
        <time>2013-03-04T11:06:52Z</time>
      </trkpt>
      <trkpt lat="44.92976" lon="0.48837">
        <ele>88.016724</ele>
        <time>2013-03-04T11:06:54Z</time>
      </trkpt>
      <trkpt lat="44.92981" lon="0.48835">
        <ele>87.520569</ele>
        <time>2013-03-04T11:06:56Z</time>
      </trkpt>
      <trkpt lat="44.92987" lon="0.48834">
        <ele>86.998962</ele>
        <time>2013-03-04T11:06:58Z</time>
      </trkpt>
      <trkpt lat="44.92992" lon="0.48831">
        <ele>86.571167</ele>
        <time>2013-03-04T11:07:00Z</time>
      </trkpt>
      <trkpt lat="44.92996" lon="0.48825">
        <ele>86.204468</ele>
        <time>2013-03-04T11:07:02Z</time>
      </trkpt>
      <trkpt lat="44.92999" lon="0.48818">
        <ele>85.85437</ele>
        <time>2013-03-04T11:07:04Z</time>
      </trkpt>
      <trkpt lat="44.93002" lon="0.48811">
        <ele>85.913147</ele>
        <time>2013-03-04T11:07:06Z</time>
      </trkpt>
      <trkpt lat="44.93004" lon="0.48804">
        <ele>85.960144</ele>
        <time>2013-03-04T11:07:08Z</time>
      </trkpt>
      <trkpt lat="44.93006" lon="0.48795">
        <ele>85.992676</ele>
        <time>2013-03-04T11:07:11Z</time>
      </trkpt>
      <trkpt lat="44.93008" lon="0.48789">
        <ele>86.012878</ele>
        <time>2013-03-04T11:07:13Z</time>
      </trkpt>
      <trkpt lat="44.93011" lon="0.4878">
        <ele>86.086304</ele>
        <time>2013-03-04T11:07:15Z</time>
      </trkpt>
      <trkpt lat="44.93013" lon="0.48771">
        <ele>86.11969</ele>
        <time>2013-03-04T11:07:17Z</time>
      </trkpt>
      <trkpt lat="44.93018" lon="0.48761">
        <ele>86.250732</ele>
        <time>2013-03-04T11:07:19Z</time>
      </trkpt>
      <trkpt lat="44.93023" lon="0.48753">
        <ele>86.407471</ele>
        <time>2013-03-04T11:07:21Z</time>
      </trkpt>
      <trkpt lat="44.93029" lon="0.48744">
        <ele>87.297058</ele>
        <time>2013-03-04T11:07:23Z</time>
      </trkpt>
      <trkpt lat="44.93034" lon="0.48736">
        <ele>88.512878</ele>
        <time>2013-03-04T11:07:25Z</time>
      </trkpt>
      <trkpt lat="44.93038" lon="0.4873">
        <ele>89.539001</ele>
        <time>2013-03-04T11:07:27Z</time>
      </trkpt>
      <trkpt lat="44.93042" lon="0.48724">
        <ele>90.504517</ele>
        <time>2013-03-04T11:07:29Z</time>
      </trkpt>
      <trkpt lat="44.93046" lon="0.48718">
        <ele>91.493042</ele>
        <time>2013-03-04T11:07:31Z</time>
      </trkpt>
      <trkpt lat="44.93049" lon="0.48714">
        <ele>92.341248</ele>
        <time>2013-03-04T11:07:33Z</time>
      </trkpt>
      <trkpt lat="44.93055" lon="0.48708">
        <ele>93.604187</ele>
        <time>2013-03-04T11:07:36Z</time>
      </trkpt>
      <trkpt lat="44.9306" lon="0.48705">
        <ele>94.580566</ele>
        <time>2013-03-04T11:07:39Z</time>
      </trkpt>
      <trkpt lat="44.93065" lon="0.48702">
        <ele>95.522827</ele>
        <time>2013-03-04T11:07:42Z</time>
      </trkpt>
      <trkpt lat="44.93069" lon="0.48699">
        <ele>96.391785</ele>
        <time>2013-03-04T11:07:46Z</time>
      </trkpt>
      <trkpt lat="44.93074" lon="0.48699">
        <ele>96.92865</ele>
        <time>2013-03-04T11:07:49Z</time>
      </trkpt>
      <trkpt lat="44.93079" lon="0.48699">
        <ele>97.426331</ele>
        <time>2013-03-04T11:07:52Z</time>
      </trkpt>
      <trkpt lat="44.93085" lon="0.487">
        <ele>97.97583</ele>
        <time>2013-03-04T11:07:54Z</time>
      </trkpt>
      <trkpt lat="44.93091" lon="0.487">
        <ele>98.548035</ele>
        <time>2013-03-04T11:07:57Z</time>
      </trkpt>
      <trkpt lat="44.93096" lon="0.48702">
        <ele>98.821228</ele>
        <time>2013-03-04T11:08:01Z</time>
      </trkpt>
      <trkpt lat="44.93102" lon="0.487">
        <ele>99.698364</ele>
        <time>2013-03-04T11:08:05Z</time>
      </trkpt>
      <trkpt lat="44.93107" lon="0.48699">
        <ele>100.322144</ele>
        <time>2013-03-04T11:08:07Z</time>
      </trkpt>
      <trkpt lat="44.93112" lon="0.487">
        <ele>100.773315</ele>
        <time>2013-03-04T11:08:09Z</time>
      </trkpt>
      <trkpt lat="44.93116" lon="0.487">
        <ele>101.137878</ele>
        <time>2013-03-04T11:08:13Z</time>
      </trkpt>
      <trkpt lat="44.93122" lon="0.48698">
        <ele>101.992126</ele>
        <time>2013-03-04T11:08:18Z</time>
      </trkpt>
      <trkpt lat="44.93126" lon="0.48695">
        <ele>102.865479</ele>
        <time>2013-03-04T11:08:23Z</time>
      </trkpt>
      <trkpt lat="44.9313" lon="0.48696">
        <ele>103.048218</ele>
        <time>2013-03-04T11:08:29Z</time>
      </trkpt>
      <trkpt lat="44.93134" lon="0.48698">
        <ele>103.322083</ele>
        <time>2013-03-04T11:08:34Z</time>
      </trkpt>
      <trkpt lat="44.93139" lon="0.48699">
        <ele>103.680054</ele>
        <time>2013-03-04T11:08:37Z</time>
      </trkpt>
      <trkpt lat="44.93144" lon="0.487">
        <ele>104.114197</ele>
        <time>2013-03-04T11:08:40Z</time>
      </trkpt>
      <trkpt lat="44.93149" lon="0.48699">
        <ele>104.765076</ele>
        <time>2013-03-04T11:08:44Z</time>
      </trkpt>
      <trkpt lat="44.93154" lon="0.48697">
        <ele>105.484863</ele>
        <time>2013-03-04T11:08:48Z</time>
      </trkpt>
      <trkpt lat="44.9316" lon="0.48699">
        <ele>105.801147</ele>
        <time>2013-03-04T11:08:52Z</time>
      </trkpt>
      <trkpt lat="44.93164" lon="0.48701">
        <ele>106.056519</ele>
        <time>2013-03-04T11:08:55Z</time>
      </trkpt>
      <trkpt lat="44.93171" lon="0.48703">
        <ele>106.541504</ele>
        <time>2013-03-04T11:08:57Z</time>
      </trkpt>
      <trkpt lat="44.93175" lon="0.48706">
        <ele>106.852966</ele>
        <time>2013-03-04T11:08:59Z</time>
      </trkpt>
      <trkpt lat="44.9318" lon="0.4871">
        <ele>107.056152</ele>
        <time>2013-03-04T11:09:01Z</time>
      </trkpt>
      <trkpt lat="44.93186" lon="0.48713">
        <ele>107.524841</ele>
        <time>2013-03-04T11:09:04Z</time>
      </trkpt>
      <trkpt lat="44.93191" lon="0.48709">
        <ele>108.460266</ele>
        <time>2013-03-04T11:09:07Z</time>
      </trkpt>
      <trkpt lat="44.93194" lon="0.48703">
        <ele>109.385864</ele>
        <time>2013-03-04T11:09:11Z</time>
      </trkpt>
      <trkpt lat="44.93199" lon="0.48699">
        <ele>110.383545</ele>
        <time>2013-03-04T11:09:15Z</time>
      </trkpt>
      <trkpt lat="44.93204" lon="0.48696">
        <ele>111.183716</ele>
        <time>2013-03-04T11:09:18Z</time>
      </trkpt>
      <trkpt lat="44.93209" lon="0.48692">
        <ele>112.099609</ele>
        <time>2013-03-04T11:09:24Z</time>
      </trkpt>
      <trkpt lat="44.93213" lon="0.48687">
        <ele>112.921082</ele>
        <time>2013-03-04T11:09:27Z</time>
      </trkpt>
      <trkpt lat="44.93216" lon="0.4868">
        <ele>113.697388</ele>
        <time>2013-03-04T11:09:30Z</time>
      </trkpt>
      <trkpt lat="44.93219" lon="0.48676">
        <ele>114.384399</ele>
        <time>2013-03-04T11:09:33Z</time>
      </trkpt>
      <trkpt lat="44.93222" lon="0.4867">
        <ele>115.114319</ele>
        <time>2013-03-04T11:09:37Z</time>
      </trkpt>
      <trkpt lat="44.93224" lon="0.48665">
        <ele>115.634338</ele>
        <time>2013-03-04T11:09:42Z</time>
      </trkpt>
      <trkpt lat="44.93228" lon="0.48659">
        <ele>116.303955</ele>
        <time>2013-03-04T11:09:46Z</time>
      </trkpt>
      <trkpt lat="44.93233" lon="0.48657">
        <ele>116.793701</ele>
        <time>2013-03-04T11:09:49Z</time>
      </trkpt>
      <trkpt lat="44.93237" lon="0.48655">
        <ele>117.287109</ele>
        <time>2013-03-04T11:09:54Z</time>
      </trkpt>
      <trkpt lat="44.9324" lon="0.4865">
        <ele>117.764587</ele>
        <time>2013-03-04T11:09:59Z</time>
      </trkpt>
      <trkpt lat="44.93245" lon="0.48644">
        <ele>118.400879</ele>
        <time>2013-03-04T11:10:02Z</time>
      </trkpt>
      <trkpt lat="44.93248" lon="0.48638">
        <ele>118.88855</ele>
        <time>2013-03-04T11:10:04Z</time>
      </trkpt>
      <trkpt lat="44.93252" lon="0.48633">
        <ele>119.306152</ele>
        <time>2013-03-04T11:10:06Z</time>
      </trkpt>
      <trkpt lat="44.93255" lon="0.48627">
        <ele>119.639038</ele>
        <time>2013-03-04T11:10:09Z</time>
      </trkpt>
      <trkpt lat="44.93258" lon="0.48621">
        <ele>120.02124</ele>
        <time>2013-03-04T11:10:13Z</time>
      </trkpt>
      <trkpt lat="44.93262" lon="0.48616">
        <ele>120.344177</ele>
        <time>2013-03-04T11:10:16Z</time>
      </trkpt>
      <trkpt lat="44.93267" lon="0.48612">
        <ele>120.705811</ele>
        <time>2013-03-04T11:10:19Z</time>
      </trkpt>
      <trkpt lat="44.9327" lon="0.48607">
        <ele>121.015015</ele>
        <time>2013-03-04T11:10:21Z</time>
      </trkpt>
      <trkpt lat="44.93273" lon="0.48601">
        <ele>121.322266</ele>
        <time>2013-03-04T11:10:23Z</time>
      </trkpt>
      <trkpt lat="44.93276" lon="0.48592">
        <ele>121.668701</ele>
        <time>2013-03-04T11:10:26Z</time>
      </trkpt>
      <trkpt lat="44.93278" lon="0.48584">
        <ele>121.978699</ele>
        <time>2013-03-04T11:10:29Z</time>
      </trkpt>
      <trkpt lat="44.9328" lon="0.48577">
        <ele>122.226074</ele>
        <time>2013-03-04T11:10:32Z</time>
      </trkpt>
      <trkpt lat="44.93281" lon="0.48568">
        <ele>122.458374</ele>
        <time>2013-03-04T11:10:35Z</time>
      </trkpt>
      <trkpt lat="44.93282" lon="0.48559">
        <ele>122.672791</ele>
        <time>2013-03-04T11:10:38Z</time>
      </trkpt>
      <trkpt lat="44.93281" lon="0.48552">
        <ele>122.831665</ele>
        <time>2013-03-04T11:10:40Z</time>
      </trkpt>
      <trkpt lat="44.93283" lon="0.48545">
        <ele>123.018066</ele>
        <time>2013-03-04T11:10:42Z</time>
      </trkpt>
      <trkpt lat="44.93284" lon="0.48537">
        <ele>123.201233</ele>
        <time>2013-03-04T11:10:44Z</time>
      </trkpt>
      <trkpt lat="44.93285" lon="0.4853">
        <ele>123.38739</ele>
        <time>2013-03-04T11:10:46Z</time>
      </trkpt>
      <trkpt lat="44.93288" lon="0.48523">
        <ele>123.546326</ele>
        <time>2013-03-04T11:10:48Z</time>
      </trkpt>
      <trkpt lat="44.9329" lon="0.48516">
        <ele>123.694214</ele>
        <time>2013-03-04T11:10:50Z</time>
      </trkpt>
      <trkpt lat="44.93294" lon="0.4851">
        <ele>123.832764</ele>
        <time>2013-03-04T11:10:52Z</time>
      </trkpt>
      <trkpt lat="44.93296" lon="0.48502">
        <ele>123.962463</ele>
        <time>2013-03-04T11:10:54Z</time>
      </trkpt>
      <trkpt lat="44.93299" lon="0.48494">
        <ele>123.796631</ele>
        <time>2013-03-04T11:10:56Z</time>
      </trkpt>
      <trkpt lat="44.93301" lon="0.48485">
        <ele>123.482361</ele>
        <time>2013-03-04T11:10:58Z</time>
      </trkpt>
      <trkpt lat="44.93303" lon="0.48475">
        <ele>123.110291</ele>
        <time>2013-03-04T11:11:00Z</time>
      </trkpt>
      <trkpt lat="44.93305" lon="0.48464">
        <ele>122.710693</ele>
        <time>2013-03-04T11:11:02Z</time>
      </trkpt>
      <trkpt lat="44.93306" lon="0.48455">
        <ele>122.371155</ele>
        <time>2013-03-04T11:11:04Z</time>
      </trkpt>
      <trkpt lat="44.93307" lon="0.48447">
        <ele>122.056152</ele>
        <time>2013-03-04T11:11:06Z</time>
      </trkpt>
      <trkpt lat="44.93303" lon="0.48453">
        <ele>122.380432</ele>
        <time>2013-03-04T11:11:15Z</time>
      </trkpt>
      <trkpt lat="44.93302" lon="0.48456">
        <ele>122.493469</ele>
        <time>2013-03-04T11:11:27Z</time>
      </trkpt>
    </trkseg>
  </trk>
</gpx>